Observation data for Guadalupe Mtns Park on 08/14/2019      Previous  Date  Next       Current Mesonet Observations  Soil Data  Daily Summary Page  Observations in Plain Language
KGU1 140500Z 31006KT 22/11 A3026 RMK A01 T02240107  RH  049%=      5-min Rain = 0
KGU1 140501Z 31005KT 23/11 A3026 RMK A01 T02260105  RH  048%=      5-min Rain = 0
KGU1 140502Z 31006KT 23/11 A3027 RMK A01 T02270105  RH  048%=      5-min Rain = 0
KGU1 140503Z 31006KT 23/11 A3027 RMK A01 T02270108  RH  049%=      5-min Rain = 0
KGU1 140504Z 31007KT 23/11 A3027 RMK A01 T02270107  RH  048%=      5-min Rain = 0
KGU1 140505Z 31007KT 23/11 A3027 RMK A01 T02280106  RH  048%=      5-min Rain = 0
KGU1 140506Z 31008KT 23/11 A3027 RMK A01 T02300105  RH  047%=      5-min Rain = 0
KGU1 140507Z 30008KT 23/10 A3027 RMK A01 T02320102  RH  045%=      5-min Rain = 0
KGU1 140508Z 30008KT 23/11 A3027 RMK A01 T02330105  RH  046%=      5-min Rain = 0
KGU1 140509Z 31010KT 23/10 A3027 RMK A01 T02310103  RH  046%=      5-min Rain = 0
KGU1 140510Z 30009KT 23/10 A3027 RMK A01 T02340101  RH  044%=      5-min Rain = 0
KGU1 140511Z 31007KT 24/10 A3027 RMK A01 T02370101  RH  044%=      5-min Rain = 0
KGU1 140512Z 32006KT 24/10 A3027 RMK A01 T02400101  RH  043%=      5-min Rain = 0
KGU1 140513Z 32006KT 24/10 A3027 RMK A01 T02410103  RH  043%=      5-min Rain = 0
KGU1 140514Z 30010KT 24/10 A3027 RMK A01 T02380104  RH  044%=      5-min Rain = 0
KGU1 140515Z 32008KT 24/10 A3027 RMK A01 T02360104  RH  045%=      5-min Rain = 0
KGU1 140516Z 33008KT 23/11 A3027 RMK A01 T02340105  RH  046%=      5-min Rain = 0
KGU1 140517Z 32008KT 23/11 A3027 RMK A01 T02330105  RH  046%=      5-min Rain = 0
KGU1 140518Z 31007KT 23/10 A3027 RMK A01 T02330104  RH  045%=      5-min Rain = 0
KGU1 140519Z 31009KT 23/11 A3027 RMK A01 T02330105  RH  046%=      5-min Rain = 0
KGU1 140520Z 30010KT 23/10 A3027 RMK A01 T02340104  RH  045%=      5-min Rain = 0
KGU1 140521Z 31009KT 24/10 A3027 RMK A01 T02350103  RH  045%=      5-min Rain = 0
KGU1 140522Z 32008KT 24/10 A3027 RMK A01 T02370103  RH  044%=      5-min Rain = 0
KGU1 140523Z 33006KT 24/10 A3027 RMK A01 T02380103  RH  044%=      5-min Rain = 0
KGU1 140524Z 31006KT 24/11 A3027 RMK A01 T02370105  RH  045%=      5-min Rain = 0
KGU1 140525Z 30009KT 24/10 A3027 RMK A01 T02360104  RH  045%=      5-min Rain = 0
KGU1 140526Z 32006KT 24/10 A3027 RMK A01 T02360103  RH  045%=      5-min Rain = 0
KGU1 140527Z 32006KT 24/10 A3027 RMK A01 T02370102  RH  044%=      5-min Rain = 0
KGU1 140528Z 31005KT 24/10 A3027 RMK A01 T02380101  RH  043%=      5-min Rain = 0
KGU1 140529Z 31007KT 24/10 A3027 RMK A01 T02390102  RH  043%=      5-min Rain = 0
KGU1 140530Z 31008KT 24/10 A3027 RMK A01 T02400100  RH  042%=      5-min Rain = 0
KGU1 140531Z 32007KT 24/10 A3027 RMK A01 T02440099  RH  041%=      5-min Rain = 0
KGU1 140532Z 32005KT 25/10 A3027 RMK A01 T02450099  RH  041%=      5-min Rain = 0
KGU1 140533Z 32005KT 24/10 A3027 RMK A01 T02440101  RH  042%=      5-min Rain = 0
KGU1 140534Z 32005KT 24/10 A3027 RMK A01 T02420102  RH  043%=      5-min Rain = 0
KGU1 140535Z 31010KT 24/10 A3027 RMK A01 T02400104  RH  044%=      5-min Rain = 0
KGU1 140536Z 31008KT 24/11 A3027 RMK A01 T02370105  RH  045%=      5-min Rain = 0
KGU1 140537Z 31009KT 24/11 A3027 RMK A01 T02350105  RH  045%=      5-min Rain = 0
KGU1 140538Z 31009KT 23/11 A3027 RMK A01 T02340106  RH  046%=      5-min Rain = 0
KGU1 140539Z 30009KT 23/11 A3027 RMK A01 T02330106  RH  046%=      5-min Rain = 0
KGU1 140540Z 31009KT 23/11 A3027 RMK A01 T02330105  RH  046%=      5-min Rain = 0
KGU1 140541Z 30008KT 23/10 A3027 RMK A01 T02340104  RH  046%=      5-min Rain = 0
KGU1 140542Z 31007KT 24/10 A3027 RMK A01 T02350104  RH  045%=      5-min Rain = 0
KGU1 140543Z 30009KT 24/10 A3027 RMK A01 T02360103  RH  045%=      5-min Rain = 0
KGU1 140544Z 30008KT 24/10 A3027 RMK A01 T02370102  RH  044%=      5-min Rain = 0
KGU1 140545Z 30009KT 24/10 A3027 RMK A01 T02390103  RH  044%=      5-min Rain = 0
KGU1 140546Z 30010KT 24/10 A3027 RMK A01 T02390104  RH  044%=      5-min Rain = 0
KGU1 140547Z 31010KT 24/10 A3027 RMK A01 T02390103  RH  044%=      5-min Rain = 0
KGU1 140548Z 31008KT 24/11 A3027 RMK A01 T02380105  RH  044%=      5-min Rain = 0
KGU1 140549Z 30010KT 24/11 A3027 RMK A01 T02350106  RH  046%=      5-min Rain = 0
KGU1 140550Z 30010KT 23/11 A3027 RMK A01 T02330107  RH  047%=      5-min Rain = 0
KGU1 140551Z 30009KT 23/11 A3027 RMK A01 T02310107  RH  047%=      5-min Rain = 0
KGU1 140552Z 30007KT 23/11 A3027 RMK A01 T02300106  RH  047%=      5-min Rain = 0
KGU1 140553Z 30007KT 23/11 A3027 RMK A01 T02300107  RH  047%=      5-min Rain = 0
KGU1 140554Z 31007KT 23/11 A3028 RMK A01 T02300106  RH  047%=      5-min Rain = 0
KGU1 140555Z 31006KT 23/11 A3028 RMK A01 T02310106  RH  047%=      5-min Rain = 0
KGU1 140556Z 31004KT 23/11 A3028 RMK A01 T02320106  RH  047%=      5-min Rain = 0
KGU1 140557Z 30006KT 23/10 A3028 RMK A01 T02310104  RH  046%=      5-min Rain = 0
KGU1 140558Z 30006KT 23/10 A3028 RMK A01 T02320104  RH  046%=      5-min Rain = 0
KGU1 140559Z 30006KT 23/10 A3028 RMK A01 T02320103  RH  046%=      5-min Rain = 0
KGU1 140600Z 30006KT 23/11 A3028 RMK A01 T02330105  RH  046%=      5-min Rain = 0
KGU1 140601Z 30006KT 23/10 A3028 RMK A01 T02310104  RH  046%=      5-min Rain = 0
KGU1 140602Z 30005KT 23/10 A3028 RMK A01 T02310103  RH  046%=      5-min Rain = 0
KGU1 140603Z 29004KT 23/11 A3028 RMK A01 T02320105  RH  046%=      5-min Rain = 0
KGU1 140604Z 29003KT 23/10 A3028 RMK A01 T02310104  RH  046%=      5-min Rain = 0
KGU1 140605Z 28002KT 23/10 A3028 RMK A01 T02310103  RH  046%=      5-min Rain = 0
KGU1 140606Z 28002KT 23/10 A3028 RMK A01 T02320102  RH  045%=      5-min Rain = 0
KGU1 140607Z 27002KT 23/10 A3028 RMK A01 T02330102  RH  045%=      5-min Rain = 0
KGU1 140608Z 24001KT 23/10 A3028 RMK A01 T02340103  RH  045%=      5-min Rain = 0
KGU1 140609Z 14004KT 23/11 A3028 RMK A01 T02330105  RH  046%=      5-min Rain = 0
KGU1 140610Z 14003KT 23/11 A3028 RMK A01 T02310106  RH  047%=      5-min Rain = 0
KGU1 140611Z 16002KT 23/11 A3028 RMK A01 T02290106  RH  047%=      5-min Rain = 0
KGU1 140612Z 18003KT 23/11 A3028 RMK A01 T02260105  RH  048%=      5-min Rain = 0
KGU1 140613Z 19004KT 23/11 A3028 RMK A01 T02250105  RH  048%=      5-min Rain = 0
KGU1 140614Z 19003KT 22/11 A3028 RMK A01 T02240106  RH  048%=      5-min Rain = 0
KGU1 140615Z 18002KT 23/11 A3028 RMK A01 T02250105  RH  048%=      5-min Rain = 0
KGU1 140616Z 20001KT 23/11 A3028 RMK A01 T02250105  RH  048%=      5-min Rain = 0
KGU1 140617Z 20000KT 23/10 A3028 RMK A01 T02260103  RH  047%=      5-min Rain = 0
KGU1 140618Z 00000KT 23/10 A3029 RMK A01 T02270103  RH  047%=      5-min Rain = 0
KGU1 140619Z 21000KT 23/10 A3029 RMK A01 T02290102  RH  046%=      5-min Rain = 0
KGU1 140620Z 02003KT 23/11 A3029 RMK A01 T02280107  RH  048%=      5-min Rain = 0
KGU1 140621Z 04003KT 22/11 A3029 RMK A01 T02240108  RH  049%=      5-min Rain = 0
KGU1 140622Z 04002KT 22/11 A3029 RMK A01 T02210107  RH  050%=      5-min Rain = 0
KGU1 140623Z 04002KT 22/11 A3029 RMK A01 T02190107  RH  051%=      5-min Rain = 0
KGU1 140624Z 02002KT 22/11 A3029 RMK A01 T02180108  RH  051%=      5-min Rain = 0
KGU1 140625Z 01002KT 22/11 A3029 RMK A01 T02170109  RH  052%=      5-min Rain = 0
KGU1 140626Z 35003KT 22/11 A3029 RMK A01 T02150110  RH  053%=      5-min Rain = 0
KGU1 140627Z 35003KT 21/11 A3029 RMK A01 T02130110  RH  054%=      5-min Rain = 0
KGU1 140628Z 35004KT 21/11 A3029 RMK A01 T02120111  RH  055%=      5-min Rain = 0
KGU1 140629Z 36004KT 21/11 A3029 RMK A01 T02100112  RH  055%=      5-min Rain = 0
KGU1 140630Z 00005KT 21/11 A3029 RMK A01 T02090112  RH  056%=      5-min Rain = 0
KGU1 140631Z 01005KT 21/11 A3029 RMK A01 T02080113  RH  056%=      5-min Rain = 0
KGU1 140632Z 01004KT 21/11 A303 RMK A01 T02090113  RH  056%=      5-min Rain = 0
KGU1 140633Z 02004KT 21/11 A303 RMK A01 T02100112  RH  056%=      5-min Rain = 0
KGU1 140634Z 01004KT 21/11 A303 RMK A01 T02110112  RH  055%=      5-min Rain = 0
KGU1 140635Z 03003KT 21/11 A303 RMK A01 T02110112  RH  055%=      5-min Rain = 0
KGU1 140636Z 03003KT 21/11 A303 RMK A01 T02110111  RH  055%=      5-min Rain = 0
KGU1 140637Z 04003KT 21/11 A303 RMK A01 T02120112  RH  055%=      5-min Rain = 0
KGU1 140638Z 04003KT 21/11 A303 RMK A01 T02120111  RH  054%=      5-min Rain = 0
KGU1 140639Z 03004KT 21/11 A303 RMK A01 T02130111  RH  054%=      5-min Rain = 0
KGU1 140640Z 03004KT 21/11 A303 RMK A01 T02130111  RH  054%=      5-min Rain = 0
KGU1 140641Z 03004KT 21/11 A303 RMK A01 T02140111  RH  054%=      5-min Rain = 0
KGU1 140642Z 02004KT 21/11 A303 RMK A01 T02140111  RH  054%=      5-min Rain = 0
KGU1 140643Z 02004KT 21/11 A303 RMK A01 T02140111  RH  054%=      5-min Rain = 0
KGU1 140644Z 02003KT 21/11 A303 RMK A01 T02140111  RH  054%=      5-min Rain = 0
KGU1 140645Z 00003KT 21/11 A303 RMK A01 T02140112  RH  054%=      5-min Rain = 0
KGU1 140646Z 00003KT 21/11 A303 RMK A01 T02140112  RH  054%=      5-min Rain = 0
KGU1 140647Z 35004KT 21/11 A303 RMK A01 T02140113  RH  054%=      5-min Rain = 0
KGU1 140648Z 34004KT 21/11 A303 RMK A01 T02140113  RH  054%=      5-min Rain = 0
KGU1 140649Z 34005KT 21/11 A303 RMK A01 T02140114  RH  055%=      5-min Rain = 0
KGU1 140650Z 34005KT 21/11 A303 RMK A01 T02140114  RH  055%=      5-min Rain = 0
KGU1 140651Z 34005KT 21/12 A303 RMK A01 T02130115  RH  055%=      5-min Rain = 0
KGU1 140652Z 34005KT 21/12 A303 RMK A01 T02120115  RH  056%=      5-min Rain = 0
KGU1 140653Z 33006KT 21/12 A3029 RMK A01 T02120115  RH  056%=      5-min Rain = 0
KGU1 140654Z 33006KT 21/12 A3029 RMK A01 T02130116  RH  056%=      5-min Rain = 0
KGU1 140655Z 33006KT 21/12 A3029 RMK A01 T02140116  RH  056%=      5-min Rain = 0
KGU1 140656Z 32006KT 22/12 A3029 RMK A01 T02150116  RH  055%=      5-min Rain = 0
KGU1 140657Z 32005KT 22/12 A3029 RMK A01 T02150117  RH  056%=      5-min Rain = 0
KGU1 140658Z 31005KT 22/12 A3029 RMK A01 T02150117  RH  056%=      5-min Rain = 0
KGU1 140659Z 31005KT 21/12 A3029 RMK A01 T02140118  RH  056%=      5-min Rain = 0
KGU1 140700Z 32005KT 21/12 A3029 RMK A01 T02130118  RH  057%=      5-min Rain = 0
KGU1 140701Z 32005KT 21/12 A3029 RMK A01 T02110119  RH  058%=      5-min Rain = 0
KGU1 140702Z 32005KT 21/12 A3029 RMK A01 T02110119  RH  058%=      5-min Rain = 0
KGU1 140703Z 32005KT 21/12 A3029 RMK A01 T02100119  RH  058%=      5-min Rain = 0
KGU1 140704Z 33005KT 21/12 A3029 RMK A01 T02090120  RH  059%=      5-min Rain = 0
KGU1 140705Z 33005KT 21/12 A3029 RMK A01 T02090120  RH  059%=      5-min Rain = 0
KGU1 140706Z 32005KT 21/12 A3029 RMK A01 T02090120  RH  059%=      5-min Rain = 0
KGU1 140707Z 30007KT 21/12 A3029 RMK A01 T02090120  RH  059%=      5-min Rain = 0
KGU1 140708Z 30007KT 21/12 A3029 RMK A01 T02080120  RH  059%=      5-min Rain = 0
KGU1 140709Z 30007KT 21/12 A3029 RMK A01 T02080121  RH  060%=      5-min Rain = 0
KGU1 140710Z 30008KT 21/12 A3029 RMK A01 T02070120  RH  059%=      5-min Rain = 0
KGU1 140711Z 30008KT 21/12 A3028 RMK A01 T02100119  RH  058%=      5-min Rain = 0
KGU1 140712Z 30007KT 21/12 A3028 RMK A01 T02120119  RH  057%=      5-min Rain = 0
KGU1 140713Z 30009KT 21/12 A3028 RMK A01 T02130119  RH  057%=      5-min Rain = 0
KGU1 140714Z 30008KT 21/12 A3028 RMK A01 T02130120  RH  057%=      5-min Rain = 0
KGU1 140715Z 30007KT 21/12 A3028 RMK A01 T02130120  RH  058%=      5-min Rain = 0
KGU1 140716Z 30009KT 21/12 A3028 RMK A01 T02120120  RH  058%=      5-min Rain = 0
KGU1 140717Z 31009KT 21/12 A3028 RMK A01 T02120120  RH  058%=      5-min Rain = 0
KGU1 140718Z 30008KT 21/12 A3028 RMK A01 T02120120  RH  058%=      5-min Rain = 0
KGU1 140719Z 30007KT 21/12 A3028 RMK A01 T02130120  RH  058%=      5-min Rain = 0
KGU1 140720Z 29006KT 21/12 A3028 RMK A01 T02120120  RH  058%=      5-min Rain = 0
KGU1 140721Z 29006KT 21/12 A3028 RMK A01 T02120120  RH  058%=      5-min Rain = 0
KGU1 140722Z 29007KT 21/12 A3028 RMK A01 T02120119  RH  058%=      5-min Rain = 0
KGU1 140723Z 29007KT 21/12 A3028 RMK A01 T02130118  RH  057%=      5-min Rain = 0
KGU1 140724Z 29007KT 21/12 A3028 RMK A01 T02130118  RH  057%=      5-min Rain = 0
KGU1 140725Z 29007KT 21/12 A3028 RMK A01 T02140117  RH  056%=      5-min Rain = 0
KGU1 140726Z 29006KT 22/12 A3028 RMK A01 T02150116  RH  055%=      5-min Rain = 0
KGU1 140727Z 29005KT 22/12 A3028 RMK A01 T02170116  RH  055%=      5-min Rain = 0
KGU1 140728Z 29006KT 22/12 A3028 RMK A01 T02180117  RH  055%=      5-min Rain = 0
KGU1 140729Z 29007KT 22/12 A3028 RMK A01 T02170116  RH  055%=      5-min Rain = 0
KGU1 140730Z 30005KT 22/12 A3028 RMK A01 T02180116  RH  054%=      5-min Rain = 0
KGU1 140731Z 29006KT 22/12 A3028 RMK A01 T02200115  RH  053%=      5-min Rain = 0
KGU1 140732Z 29006KT 22/12 A3028 RMK A01 T02210116  RH  053%=      5-min Rain = 0
KGU1 140733Z 30005KT 22/12 A3028 RMK A01 T02200116  RH  054%=      5-min Rain = 0
KGU1 140734Z 30004KT 22/12 A3028 RMK A01 T02200115  RH  053%=      5-min Rain = 0
KGU1 140735Z 31004KT 22/12 A3028 RMK A01 T02210115  RH  053%=      5-min Rain = 0
KGU1 140736Z 31005KT 22/12 A3028 RMK A01 T02220115  RH  053%=      5-min Rain = 0
KGU1 140737Z 32006KT 22/12 A3028 RMK A01 T02210116  RH  053%=      5-min Rain = 0
KGU1 140738Z 32007KT 22/12 A3028 RMK A01 T02190118  RH  054%=      5-min Rain = 0
KGU1 140739Z 32007KT 22/12 A3028 RMK A01 T02180118  RH  055%=      5-min Rain = 0
KGU1 140740Z 32007KT 22/12 A3028 RMK A01 T02170119  RH  056%=      5-min Rain = 0
KGU1 140741Z 32007KT 22/12 A3028 RMK A01 T02160119  RH  056%=      5-min Rain = 0
KGU1 140742Z 32007KT 22/12 A3028 RMK A01 T02170119  RH  056%=      5-min Rain = 0
KGU1 140743Z 33006KT 22/12 A3028 RMK A01 T02170119  RH  056%=      5-min Rain = 0
KGU1 140744Z 33005KT 22/12 A3028 RMK A01 T02170119  RH  056%=      5-min Rain = 0
KGU1 140745Z 32005KT 22/12 A3028 RMK A01 T02170119  RH  055%=      5-min Rain = 0
KGU1 140746Z 33005KT 22/12 A3028 RMK A01 T02180118  RH  055%=      5-min Rain = 0
KGU1 140747Z 32004KT 22/12 A3028 RMK A01 T02190119  RH  055%=      5-min Rain = 0
KGU1 140748Z 32004KT 22/12 A3028 RMK A01 T02190119  RH  055%=      5-min Rain = 0
KGU1 140749Z 31004KT 22/12 A3028 RMK A01 T02180120  RH  056%=      5-min Rain = 0
KGU1 140750Z 30005KT 22/12 A3028 RMK A01 T02160120  RH  056%=      5-min Rain = 0
KGU1 140751Z 29007KT 22/12 A3027 RMK A01 T02160119  RH  056%=      5-min Rain = 0
KGU1 140752Z 30007KT 22/12 A3027 RMK A01 T02170116  RH  054%=      5-min Rain = 0
KGU1 140753Z 30006KT 22/12 A3027 RMK A01 T02190115  RH  054%=      5-min Rain = 0
KGU1 140754Z 30009KT 22/11 A3027 RMK A01 T02200114  RH  053%=      5-min Rain = 0
KGU1 140755Z 30008KT 22/11 A3027 RMK A01 T02200113  RH  053%=      5-min Rain = 0
KGU1 140756Z 30008KT 22/11 A3027 RMK A01 T02240110  RH  050%=      5-min Rain = 0
KGU1 140757Z 30007KT 23/11 A3027 RMK A01 T02270111  RH  049%=      5-min Rain = 0
KGU1 140758Z 30008KT 23/11 A3027 RMK A01 T02280112  RH  050%=      5-min Rain = 0
KGU1 140759Z 31007KT 23/11 A3027 RMK A01 T02270111  RH  050%=      5-min Rain = 0
KGU1 140800Z 30006KT 23/11 A3027 RMK A01 T02270111  RH  049%=      5-min Rain = 0
KGU1 140801Z 31005KT 23/11 A3027 RMK A01 T02270111  RH  049%=      5-min Rain = 0
KGU1 140802Z 32004KT 23/11 A3028 RMK A01 T02270111  RH  049%=      5-min Rain = 0
KGU1 140803Z 33003KT 23/11 A3028 RMK A01 T02280109  RH  049%=      5-min Rain = 0
KGU1 140804Z 35001KT 23/11 A3028 RMK A01 T02280111  RH  049%=      5-min Rain = 0
KGU1 140805Z 03002KT 23/11 A3028 RMK A01 T02270110  RH  049%=      5-min Rain = 0
KGU1 140806Z 03001KT 23/11 A3028 RMK A01 T02280107  RH  048%=      5-min Rain = 0
KGU1 140807Z 03001KT 23/11 A3028 RMK A01 T02300108  RH  048%=      5-min Rain = 0
KGU1 140808Z 03001KT 23/11 A3028 RMK A01 T02310109  RH  048%=      5-min Rain = 0
KGU1 140809Z 03001KT 23/11 A3028 RMK A01 T02300109  RH  048%=      5-min Rain = 0
KGU1 140810Z 02000KT 23/11 A3027 RMK A01 T02290109  RH  048%=      5-min Rain = 0
KGU1 140811Z 35002KT 23/11 A3027 RMK A01 T02290110  RH  049%=      5-min Rain = 0
KGU1 140812Z 33002KT 23/11 A3027 RMK A01 T02280109  RH  049%=      5-min Rain = 0
KGU1 140813Z 33003KT 23/11 A3027 RMK A01 T02270111  RH  050%=      5-min Rain = 0
KGU1 140814Z 33003KT 22/11 A3027 RMK A01 T02240114  RH  052%=      5-min Rain = 0
KGU1 140815Z 33004KT 22/12 A3027 RMK A01 T02200115  RH  053%=      5-min Rain = 0
KGU1 140816Z 33004KT 22/12 A3027 RMK A01 T02180115  RH  054%=      5-min Rain = 0
KGU1 140817Z 33003KT 22/12 A3027 RMK A01 T02170115  RH  054%=      5-min Rain = 0
KGU1 140818Z 33002KT 22/12 A3027 RMK A01 T02160115  RH  055%=      5-min Rain = 0
KGU1 140819Z 33002KT 22/12 A3027 RMK A01 T02160115  RH  055%=      5-min Rain = 0
KGU1 140820Z 33002KT 22/11 A3027 RMK A01 T02160114  RH  054%=      5-min Rain = 0
KGU1 140821Z 33002KT 22/11 A3027 RMK A01 T02180112  RH  053%=      5-min Rain = 0
KGU1 140822Z 33002KT 22/11 A3027 RMK A01 T02190113  RH  053%=      5-min Rain = 0
KGU1 140823Z 32002KT 22/11 A3027 RMK A01 T02200113  RH  053%=      5-min Rain = 0
KGU1 140824Z 32002KT 22/11 A3027 RMK A01 T02200111  RH  052%=      5-min Rain = 0
KGU1 140825Z 31003KT 22/11 A3027 RMK A01 T02210111  RH  051%=      5-min Rain = 0
KGU1 140826Z 31004KT 22/11 A3027 RMK A01 T02220112  RH  051%=      5-min Rain = 0
KGU1 140827Z 30005KT 22/11 A3027 RMK A01 T02210112  RH  052%=      5-min Rain = 0
KGU1 140828Z 30005KT 22/11 A3026 RMK A01 T02200111  RH  052%=      5-min Rain = 0
KGU1 140829Z 31005KT 22/11 A3026 RMK A01 T02200113  RH  052%=      5-min Rain = 0
KGU1 140830Z 31005KT 22/11 A3026 RMK A01 T02200114  RH  053%=      5-min Rain = 0
KGU1 140831Z 30005KT 22/12 A3026 RMK A01 T02190115  RH  054%=      5-min Rain = 0
KGU1 140832Z 30005KT 22/12 A3026 RMK A01 T02180115  RH  054%=      5-min Rain = 0
KGU1 140833Z 30005KT 22/11 A3026 RMK A01 T02180114  RH  053%=      5-min Rain = 0
KGU1 140834Z 29005KT 22/11 A3026 RMK A01 T02190114  RH  053%=      5-min Rain = 0
KGU1 140835Z 28005KT 22/11 A3026 RMK A01 T02190113  RH  053%=      5-min Rain = 0
KGU1 140836Z 29006KT 22/11 A3026 RMK A01 T02200112  RH  052%=      5-min Rain = 0
KGU1 140837Z 30005KT 22/11 A3027 RMK A01 T02220113  RH  052%=      5-min Rain = 0
KGU1 140838Z 30005KT 22/11 A3027 RMK A01 T02240113  RH  051%=      5-min Rain = 0
KGU1 140839Z 30006KT 23/11 A3027 RMK A01 T02250113  RH  051%=      5-min Rain = 0
KGU1 140840Z 30005KT 23/11 A3027 RMK A01 T02290113  RH  050%=      5-min Rain = 0
KGU1 140841Z 30006KT 23/11 A3027 RMK A01 T02310114  RH  050%=      5-min Rain = 0
KGU1 140842Z 30007KT 23/12 A3027 RMK A01 T02310115  RH  050%=      5-min Rain = 0
KGU1 140843Z 30007KT 23/11 A3026 RMK A01 T02310114  RH  049%=      5-min Rain = 0
KGU1 140844Z 31007KT 23/11 A3026 RMK A01 T02320113  RH  049%=      5-min Rain = 0
KGU1 140845Z 30008KT 23/11 A3026 RMK A01 T02320114  RH  049%=      5-min Rain = 0
KGU1 140846Z 30006KT 23/11 A3026 RMK A01 T02330113  RH  049%=      5-min Rain = 0
KGU1 140847Z 30006KT 23/12 A3026 RMK A01 T02340116  RH  049%=      5-min Rain = 0
KGU1 140848Z 30005KT 23/12 A3026 RMK A01 T02330117  RH  050%=      5-min Rain = 0
KGU1 140849Z 31005KT 23/12 A3026 RMK A01 T02330120  RH  051%=      5-min Rain = 0
KGU1 140850Z 33004KT 23/12 A3026 RMK A01 T02330123  RH  052%=      5-min Rain = 0
KGU1 140851Z 34004KT 23/12 A3026 RMK A01 T02330124  RH  052%=      5-min Rain = 0
KGU1 140852Z 32003KT 23/13 A3026 RMK A01 T02340125  RH  052%=      5-min Rain = 0
KGU1 140853Z 32004KT 23/12 A3026 RMK A01 T02340124  RH  052%=      5-min Rain = 0
KGU1 140854Z 32003KT 23/12 A3026 RMK A01 T02330123  RH  052%=      5-min Rain = 0
KGU1 140855Z 31003KT 23/13 A3026 RMK A01 T02320126  RH  054%=      5-min Rain = 0
KGU1 140856Z 32003KT 23/13 A3026 RMK A01 T02300126  RH  054%=      5-min Rain = 0
KGU1 140857Z 33003KT 23/13 A3026 RMK A01 T02300126  RH  054%=      5-min Rain = 0
KGU1 140858Z 34003KT 23/13 A3026 RMK A01 T02300127  RH  054%=      5-min Rain = 0
KGU1 140859Z 32003KT 23/13 A3026 RMK A01 T02300128  RH  055%=      5-min Rain = 0
KGU1 140900Z 33003KT 23/13 A3026 RMK A01 T02290129  RH  055%=      5-min Rain = 0
KGU1 140901Z 33005KT 23/13 A3026 RMK A01 T02280130  RH  056%=      5-min Rain = 0
KGU1 140902Z 33005KT 23/13 A3026 RMK A01 T02270131  RH  057%=      5-min Rain = 0
KGU1 140903Z 32005KT 23/13 A3026 RMK A01 T02260132  RH  058%=      5-min Rain = 0
KGU1 140904Z 32005KT 22/13 A3026 RMK A01 T02240133  RH  059%=      5-min Rain = 0
KGU1 140905Z 33005KT 22/13 A3026 RMK A01 T02230134  RH  059%=      5-min Rain = 0
KGU1 140906Z 32005KT 22/13 A3026 RMK A01 T02240134  RH  059%=      5-min Rain = 0
KGU1 140907Z 32004KT 22/13 A3026 RMK A01 T02240133  RH  059%=      5-min Rain = 0
KGU1 140908Z 32004KT 23/13 A3026 RMK A01 T02250134  RH  059%=      5-min Rain = 0
KGU1 140909Z 31004KT 23/13 A3026 RMK A01 T02250134  RH  059%=      5-min Rain = 0
KGU1 140910Z 30004KT 22/13 A3026 RMK A01 T02240134  RH  059%=      5-min Rain = 0
KGU1 140911Z 29004KT 22/13 A3026 RMK A01 T02230132  RH  058%=      5-min Rain = 0
KGU1 140912Z 30004KT 22/13 A3026 RMK A01 T02220129  RH  057%=      5-min Rain = 0
KGU1 140913Z 30004KT 22/13 A3026 RMK A01 T02220128  RH  058%=      5-min Rain = 0
KGU1 140914Z 30004KT 22/13 A3026 RMK A01 T02210129  RH  058%=      5-min Rain = 0
KGU1 140915Z 30004KT 22/13 A3026 RMK A01 T02220129  RH  058%=      5-min Rain = 0
KGU1 140916Z 32003KT 22/13 A3026 RMK A01 T02220131  RH  059%=      5-min Rain = 0
KGU1 140917Z 33003KT 22/13 A3026 RMK A01 T02230134  RH  059%=      5-min Rain = 0
KGU1 140918Z 33004KT 22/14 A3026 RMK A01 T02240136  RH  060%=      5-min Rain = 0
KGU1 140919Z 34004KT 23/14 A3026 RMK A01 T02250138  RH  060%=      5-min Rain = 0
KGU1 140920Z 35004KT 23/14 A3026 RMK A01 T02260139  RH  060%=      5-min Rain = 0
KGU1 140921Z 34004KT 23/14 A3026 RMK A01 T02260139  RH  060%=      5-min Rain = 0
KGU1 140922Z 35003KT 23/14 A3026 RMK A01 T02270139  RH  060%=      5-min Rain = 0
KGU1 140923Z 33003KT 23/14 A3026 RMK A01 T02290140  RH  060%=      5-min Rain = 0
KGU1 140924Z 32003KT 23/14 A3026 RMK A01 T02290140  RH  060%=      5-min Rain = 0
KGU1 140925Z 32004KT 23/14 A3026 RMK A01 T02270140  RH  060%=      5-min Rain = 0
KGU1 140926Z 30004KT 23/14 A3026 RMK A01 T02250138  RH  060%=      5-min Rain = 0
KGU1 140927Z 32005KT 22/14 A3026 RMK A01 T02230136  RH  060%=      5-min Rain = 0
KGU1 140928Z 33004KT 22/14 A3026 RMK A01 T02220137  RH  061%=      5-min Rain = 0
KGU1 140929Z 34004KT 22/14 A3026 RMK A01 T02240139  RH  061%=      5-min Rain = 0
KGU1 140930Z 35005KT 23/14 A3026 RMK A01 T02270140  RH  060%=      5-min Rain = 0
KGU1 140931Z 35005KT 23/14 A3026 RMK A01 T02290141  RH  060%=      5-min Rain = 0
KGU1 140932Z 00005KT 23/14 A3026 RMK A01 T02300141  RH  060%=      5-min Rain = 0
KGU1 140933Z 00004KT 23/14 A3026 RMK A01 T02320141  RH  059%=      5-min Rain = 0
KGU1 140934Z 36004KT 23/14 A3026 RMK A01 T02330141  RH  059%=      5-min Rain = 0
KGU1 140935Z 36003KT 23/14 A3026 RMK A01 T02330141  RH  059%=      5-min Rain = 0
KGU1 140936Z 36003KT 23/14 A3026 RMK A01 T02330141  RH  059%=      5-min Rain = 0
KGU1 140937Z 35003KT 23/14 A3026 RMK A01 T02320141  RH  059%=      5-min Rain = 0
KGU1 140938Z 01003KT 23/14 A3025 RMK A01 T02320141  RH  059%=      5-min Rain = 0
KGU1 140939Z 00002KT 23/14 A3025 RMK A01 T02320141  RH  059%=      5-min Rain = 0
KGU1 140940Z 36003KT 23/14 A3025 RMK A01 T02300141  RH  060%=      5-min Rain = 0
KGU1 140941Z 35002KT 23/14 A3025 RMK A01 T02280141  RH  060%=      5-min Rain = 0
KGU1 140942Z 34003KT 23/14 A3025 RMK A01 T02280141  RH  060%=      5-min Rain = 0
KGU1 140943Z 34003KT 23/14 A3026 RMK A01 T02270141  RH  061%=      5-min Rain = 0
KGU1 140944Z 33004KT 23/14 A3026 RMK A01 T02270141  RH  061%=      5-min Rain = 0
KGU1 140945Z 34003KT 23/14 A3025 RMK A01 T02260141  RH  061%=      5-min Rain = 0
KGU1 140946Z 34004KT 23/14 A3025 RMK A01 T02260141  RH  061%=      5-min Rain = 0
KGU1 140947Z 33004KT 23/14 A3025 RMK A01 T02260142  RH  062%=      5-min Rain = 0
KGU1 140948Z 33004KT 22/14 A3025 RMK A01 T02240142  RH  062%=      5-min Rain = 0
KGU1 140949Z 34005KT 22/14 A3025 RMK A01 T02240142  RH  062%=      5-min Rain = 0
KGU1 140950Z 33005KT 22/14 A3025 RMK A01 T02240141  RH  062%=      5-min Rain = 0
KGU1 140951Z 32004KT 22/14 A3025 RMK A01 T02240142  RH  062%=      5-min Rain = 0
KGU1 140952Z 31005KT 22/14 A3025 RMK A01 T02220142  RH  063%=      5-min Rain = 0
KGU1 140953Z 31005KT 22/14 A3025 RMK A01 T02200142  RH  064%=      5-min Rain = 0
KGU1 140954Z 31004KT 22/14 A3025 RMK A01 T02200141  RH  064%=      5-min Rain = 0
KGU1 140955Z 31004KT 22/14 A3025 RMK A01 T02190141  RH  064%=      5-min Rain = 0
KGU1 140956Z 31005KT 22/14 A3025 RMK A01 T02180141  RH  064%=      5-min Rain = 0
KGU1 140957Z 31005KT 22/14 A3025 RMK A01 T02170141  RH  065%=      5-min Rain = 0
KGU1 140958Z 30005KT 22/14 A3025 RMK A01 T02150141  RH  065%=      5-min Rain = 0
KGU1 140959Z 30005KT 22/14 A3025 RMK A01 T02150141  RH  065%=      5-min Rain = 0
KGU1 141000Z 30005KT 22/14 A3025 RMK A01 T02160141  RH  065%=      5-min Rain = 0
KGU1 141001Z 29006KT 22/14 A3025 RMK A01 T02170141  RH  065%=      5-min Rain = 0
KGU1 141002Z 30006KT 22/14 A3025 RMK A01 T02180141  RH  064%=      5-min Rain = 0
KGU1 141003Z 30005KT 22/14 A3025 RMK A01 T02190141  RH  064%=      5-min Rain = 0
KGU1 141004Z 31005KT 22/14 A3025 RMK A01 T02200141  RH  063%=      5-min Rain = 0
KGU1 141005Z 31005KT 22/14 A3025 RMK A01 T02210141  RH  063%=      5-min Rain = 0
KGU1 141006Z 30005KT 22/14 A3025 RMK A01 T02220140  RH  062%=      5-min Rain = 0
KGU1 141007Z 31004KT 22/14 A3025 RMK A01 T02230140  RH  062%=      5-min Rain = 0
KGU1 141008Z 29004KT 23/14 A3025 RMK A01 T02250140  RH  061%=      5-min Rain = 0
KGU1 141009Z 28004KT 23/14 A3025 RMK A01 T02270140  RH  060%=      5-min Rain = 0
KGU1 141010Z 28004KT 23/14 A3025 RMK A01 T02270140  RH  061%=      5-min Rain = 0
KGU1 141011Z 30004KT 23/14 A3025 RMK A01 T02260140  RH  061%=      5-min Rain = 0
KGU1 141012Z 31004KT 23/14 A3025 RMK A01 T02250141  RH  061%=      5-min Rain = 0
KGU1 141013Z 31004KT 22/14 A3025 RMK A01 T02240141  RH  062%=      5-min Rain = 0
KGU1 141014Z 31004KT 22/14 A3025 RMK A01 T02240140  RH  062%=      5-min Rain = 0
KGU1 141015Z 30004KT 23/14 A3025 RMK A01 T02250140  RH  061%=      5-min Rain = 0
KGU1 141016Z 30004KT 23/14 A3025 RMK A01 T02270140  RH  060%=      5-min Rain = 0
KGU1 141017Z 30005KT 23/14 A3025 RMK A01 T02270141  RH  060%=      5-min Rain = 0
KGU1 141018Z 31005KT 23/14 A3025 RMK A01 T02250141  RH  061%=      5-min Rain = 0
KGU1 141019Z 31005KT 22/14 A3025 RMK A01 T02240140  RH  062%=      5-min Rain = 0
KGU1 141020Z 33004KT 22/14 A3025 RMK A01 T02240140  RH  061%=      5-min Rain = 0
KGU1 141021Z 32004KT 23/14 A3025 RMK A01 T02250140  RH  061%=      5-min Rain = 0
KGU1 141022Z 32004KT 22/14 A3025 RMK A01 T02240140  RH  061%=      5-min Rain = 0
KGU1 141023Z 33003KT 23/14 A3025 RMK A01 T02250140  RH  061%=      5-min Rain = 0
KGU1 141024Z 33003KT 22/14 A3025 RMK A01 T02240140  RH  062%=      5-min Rain = 0
KGU1 141025Z 33004KT 22/14 A3025 RMK A01 T02220140  RH  062%=      5-min Rain = 0
KGU1 141026Z 33003KT 22/14 A3025 RMK A01 T02200140  RH  063%=      5-min Rain = 0
KGU1 141027Z 33003KT 22/14 A3025 RMK A01 T02190140  RH  063%=      5-min Rain = 0
KGU1 141028Z 31003KT 22/14 A3025 RMK A01 T02190140  RH  063%=      5-min Rain = 0
KGU1 141029Z 30005KT 22/14 A3025 RMK A01 T02180140  RH  064%=      5-min Rain = 0
KGU1 141030Z 30005KT 22/14 A3025 RMK A01 T02170140  RH  064%=      5-min Rain = 0
KGU1 141031Z 30005KT 22/14 A3025 RMK A01 T02160140  RH  065%=      5-min Rain = 0
KGU1 141032Z 30005KT 21/14 A3025 RMK A01 T02140141  RH  065%=      5-min Rain = 0
KGU1 141033Z 30006KT 21/14 A3025 RMK A01 T02140141  RH  066%=      5-min Rain = 0
KGU1 141034Z 30007KT 21/14 A3025 RMK A01 T02140141  RH  066%=      5-min Rain = 0
KGU1 141035Z 30007KT 22/14 A3025 RMK A01 T02150141  RH  065%=      5-min Rain = 0
KGU1 141036Z 30006KT 22/14 A3025 RMK A01 T02170141  RH  065%=      5-min Rain = 0
KGU1 141037Z 31006KT 22/14 A3025 RMK A01 T02180141  RH  064%=      5-min Rain = 0
KGU1 141038Z 31006KT 22/14 A3025 RMK A01 T02170141  RH  065%=      5-min Rain = 0
KGU1 141039Z 31005KT 22/14 A3025 RMK A01 T02170141  RH  065%=      5-min Rain = 0
KGU1 141040Z 31005KT 22/14 A3025 RMK A01 T02170141  RH  065%=      5-min Rain = 0
KGU1 141041Z 33005KT 22/14 A3025 RMK A01 T02170141  RH  065%=      5-min Rain = 0
KGU1 141042Z 33005KT 22/14 A3025 RMK A01 T02170141  RH  064%=      5-min Rain = 0
KGU1 141043Z 32006KT 22/14 A3025 RMK A01 T02180141  RH  064%=      5-min Rain = 0
KGU1 141044Z 32005KT 22/14 A3025 RMK A01 T02200140  RH  063%=      5-min Rain = 0
KGU1 141045Z 34005KT 22/14 A3025 RMK A01 T02220140  RH  062%=      5-min Rain = 0
KGU1 141046Z 32006KT 22/14 A3025 RMK A01 T02230140  RH  062%=      5-min Rain = 0
KGU1 141047Z 32005KT 22/14 A3025 RMK A01 T02230140  RH  062%=      5-min Rain = 0
KGU1 141048Z 32004KT 22/14 A3025 RMK A01 T02240140  RH  061%=      5-min Rain = 0
KGU1 141049Z 33004KT 22/14 A3025 RMK A01 T02240140  RH  062%=      5-min Rain = 0
KGU1 141050Z 34003KT 22/14 A3025 RMK A01 T02230140  RH  062%=      5-min Rain = 0
KGU1 141051Z 02002KT 22/14 A3025 RMK A01 T02230138  RH  061%=      5-min Rain = 0
KGU1 141052Z 06000KT 23/14 A3025 RMK A01 T02250138  RH  060%=      5-min Rain = 0
KGU1 141053Z 07001KT 23/14 A3025 RMK A01 T02260137  RH  059%=      5-min Rain = 0
KGU1 141054Z 07001KT 23/14 A3025 RMK A01 T02280137  RH  059%=      5-min Rain = 0
KGU1 141055Z 06001KT 23/14 A3025 RMK A01 T02280137  RH  059%=      5-min Rain = 0
KGU1 141056Z 08002KT 23/14 A3025 RMK A01 T02280137  RH  059%=      5-min Rain = 0
KGU1 141057Z 07002KT 23/14 A3025 RMK A01 T02280137  RH  059%=      5-min Rain = 0
KGU1 141058Z 07001KT 23/14 A3025 RMK A01 T02290136  RH  058%=      5-min Rain = 0
KGU1 141059Z 08001KT 23/14 A3025 RMK A01 T02290136  RH  058%=      5-min Rain = 0
KGU1 141100Z 08001KT 23/14 A3025 RMK A01 T02290136  RH  058%=      5-min Rain = 0
KGU1 141101Z 09002KT 23/14 A3025 RMK A01 T02290136  RH  058%=      5-min Rain = 0
KGU1 141102Z 10001KT 23/14 A3025 RMK A01 T02300136  RH  058%=      5-min Rain = 0
KGU1 141103Z 08001KT 23/14 A3025 RMK A01 T02300136  RH  058%=      5-min Rain = 0
KGU1 141104Z 08001KT 23/14 A3025 RMK A01 T02300136  RH  058%=      5-min Rain = 0
KGU1 141105Z 08000KT 23/14 A3025 RMK A01 T02300136  RH  058%=      5-min Rain = 0
KGU1 141106Z 00000KT 23/14 A3025 RMK A01 T02300136  RH  058%=      5-min Rain = 0
KGU1 141107Z 00000KT 23/14 A3025 RMK A01 T02280137  RH  059%=      5-min Rain = 0
KGU1 141108Z 00000KT 23/14 A3025 RMK A01 T02280136  RH  059%=      5-min Rain = 0
KGU1 141109Z 00000KT 23/14 A3025 RMK A01 T02270136  RH  059%=      5-min Rain = 0
KGU1 141110Z 00000KT 23/14 A3025 RMK A01 T02270136  RH  059%=      5-min Rain = 0
KGU1 141111Z 00000KT 23/14 A3025 RMK A01 T02280136  RH  059%=      5-min Rain = 0
KGU1 141112Z 00000KT 23/14 A3025 RMK A01 T02280136  RH  058%=      5-min Rain = 0
KGU1 141113Z 00000KT 23/14 A3025 RMK A01 T02290136  RH  058%=      5-min Rain = 0
KGU1 141114Z 00000KT 23/14 A3025 RMK A01 T02290136  RH  058%=      5-min Rain = 0
KGU1 141115Z 00000KT 23/14 A3025 RMK A01 T02300136  RH  058%=      5-min Rain = 0
KGU1 141116Z 30002KT 23/14 A3025 RMK A01 T02290137  RH  058%=      5-min Rain = 0
KGU1 141117Z 30003KT 23/14 A3026 RMK A01 T02270138  RH  059%=      5-min Rain = 0
KGU1 141118Z 32003KT 23/14 A3026 RMK A01 T02250138  RH  060%=      5-min Rain = 0
KGU1 141119Z 33002KT 22/14 A3026 RMK A01 T02220138  RH  061%=      5-min Rain = 0
KGU1 141120Z 29002KT 22/14 A3026 RMK A01 T02220138  RH  061%=      5-min Rain = 0
KGU1 141121Z 30003KT 22/14 A3026 RMK A01 T02200138  RH  062%=      5-min Rain = 0
KGU1 141122Z 30002KT 22/14 A3026 RMK A01 T02180138  RH  063%=      5-min Rain = 0
KGU1 141123Z 30003KT 22/14 A3026 RMK A01 T02190138  RH  063%=      5-min Rain = 0
KGU1 141124Z 31003KT 22/14 A3026 RMK A01 T02180138  RH  063%=      5-min Rain = 0
KGU1 141125Z 32003KT 22/14 A3026 RMK A01 T02150138  RH  064%=      5-min Rain = 0
KGU1 141126Z 33003KT 21/14 A3026 RMK A01 T02120138  RH  065%=      5-min Rain = 0
KGU1 141127Z 33003KT 21/14 A3026 RMK A01 T02100138  RH  066%=      5-min Rain = 0
KGU1 141128Z 33004KT 21/14 A3026 RMK A01 T02080138  RH  067%=      5-min Rain = 0
KGU1 141129Z 34004KT 21/14 A3026 RMK A01 T02060138  RH  068%=      5-min Rain = 0
KGU1 141130Z 35003KT 21/14 A3026 RMK A01 T02050138  RH  068%=      5-min Rain = 0
KGU1 141131Z 34004KT 21/14 A3026 RMK A01 T02050138  RH  068%=      5-min Rain = 0
KGU1 141132Z 34003KT 20/14 A3026 RMK A01 T02040138  RH  068%=      5-min Rain = 0
KGU1 141133Z 34003KT 20/14 A3026 RMK A01 T02040138  RH  069%=      5-min Rain = 0
KGU1 141134Z 34003KT 20/14 A3026 RMK A01 T02030137  RH  069%=      5-min Rain = 0
KGU1 141135Z 35002KT 20/14 A3026 RMK A01 T02030137  RH  069%=      5-min Rain = 0
KGU1 141136Z 35002KT 20/14 A3026 RMK A01 T02040137  RH  068%=      5-min Rain = 0
KGU1 141137Z 36002KT 21/14 A3026 RMK A01 T02050138  RH  068%=      5-min Rain = 0
KGU1 141138Z 35001KT 21/14 A3026 RMK A01 T02060138  RH  068%=      5-min Rain = 0
KGU1 141139Z 34001KT 21/14 A3026 RMK A01 T02070138  RH  067%=      5-min Rain = 0
KGU1 141140Z 35000KT 21/14 A3026 RMK A01 T02080138  RH  067%=      5-min Rain = 0
KGU1 141141Z 30001KT 21/14 A3026 RMK A01 T02090138  RH  067%=      5-min Rain = 0
KGU1 141142Z 29001KT 21/14 A3026 RMK A01 T02090138  RH  066%=      5-min Rain = 0
KGU1 141143Z 27001KT 21/14 A3026 RMK A01 T02100138  RH  066%=      5-min Rain = 0
KGU1 141144Z 26001KT 21/14 A3026 RMK A01 T02100138  RH  066%=      5-min Rain = 0
KGU1 141145Z 25001KT 21/14 A3026 RMK A01 T02100138  RH  066%=      5-min Rain = 0
KGU1 141146Z 23001KT 21/14 A3026 RMK A01 T02100138  RH  066%=      5-min Rain = 0
KGU1 141147Z 16001KT 21/14 A3026 RMK A01 T02090138  RH  067%=      5-min Rain = 0
KGU1 141148Z 15001KT 21/14 A3026 RMK A01 T02090138  RH  066%=      5-min Rain = 0
KGU1 141149Z 16002KT 21/14 A3027 RMK A01 T02090137  RH  066%=      5-min Rain = 0
KGU1 141150Z 13002KT 21/13 A3027 RMK A01 T02080134  RH  065%=      5-min Rain = 0
KGU1 141151Z 13000KT 21/13 A3027 RMK A01 T02080133  RH  065%=      5-min Rain = 0
KGU1 141152Z 00000KT 21/13 A3027 RMK A01 T02090133  RH  064%=      5-min Rain = 0
KGU1 141153Z 14001KT 21/13 A3027 RMK A01 T02090133  RH  064%=      5-min Rain = 0
KGU1 141154Z 16002KT 21/13 A3027 RMK A01 T02100134  RH  064%=      5-min Rain = 0
KGU1 141155Z 17003KT 21/13 A3027 RMK A01 T02110134  RH  064%=      5-min Rain = 0
KGU1 141156Z 18003KT 21/13 A3027 RMK A01 T02110134  RH  064%=      5-min Rain = 0
KGU1 141157Z 17003KT 21/13 A3027 RMK A01 T02100132  RH  063%=      5-min Rain = 0
KGU1 141158Z 17003KT 21/13 A3027 RMK A01 T02090131  RH  063%=      5-min Rain = 0
KGU1 141159Z 17003KT 21/13 A3027 RMK A01 T02090130  RH  063%=      5-min Rain = 0
KGU1 141200Z 17003KT 21/13 A3028 RMK A01 T02080129  RH  063%=      5-min Rain = 0
KGU1 141201Z 16004KT 21/13 A3028 RMK A01 T02080129  RH  063%=      5-min Rain = 0
KGU1 141202Z 15003KT 21/13 A3028 RMK A01 T02070129  RH  063%=      5-min Rain = 0
KGU1 141203Z 15003KT 21/13 A3028 RMK A01 T02060128  RH  063%=      5-min Rain = 0
KGU1 141204Z 14003KT 21/13 A3028 RMK A01 T02050128  RH  064%=      5-min Rain = 0
KGU1 141205Z 14003KT 20/13 A3028 RMK A01 T02040128  RH  064%=      5-min Rain = 0
KGU1 141206Z 13003KT 20/13 A3028 RMK A01 T02030128  RH  064%=      5-min Rain = 0
KGU1 141207Z 13002KT 20/13 A3028 RMK A01 T02020127  RH  065%=      5-min Rain = 0
KGU1 141208Z 12002KT 20/13 A3028 RMK A01 T02020126  RH  064%=      5-min Rain = 0
KGU1 141209Z 12000KT 20/13 A3028 RMK A01 T02010126  RH  064%=      5-min Rain = 0
KGU1 141210Z 00000KT 20/13 A3028 RMK A01 T02000126  RH  065%=      5-min Rain = 0
KGU1 141211Z 03000KT 20/13 A3028 RMK A01 T02000126  RH  065%=      5-min Rain = 0
KGU1 141212Z 01002KT 20/13 A3028 RMK A01 T01990129  RH  066%=      5-min Rain = 0
KGU1 141213Z 03003KT 20/13 A3029 RMK A01 T01970129  RH  068%=      5-min Rain = 0
KGU1 141214Z 03002KT 20/13 A3029 RMK A01 T01960127  RH  067%=      5-min Rain = 0
KGU1 141215Z 03003KT 20/13 A3029 RMK A01 T01960126  RH  067%=      5-min Rain = 0
KGU1 141216Z 02003KT 20/13 A3029 RMK A01 T01960126  RH  066%=      5-min Rain = 0
KGU1 141217Z 01004KT 20/13 A3029 RMK A01 T01960125  RH  066%=      5-min Rain = 0
KGU1 141218Z 01004KT 20/12 A3029 RMK A01 T01960124  RH  066%=      5-min Rain = 0
KGU1 141219Z 01004KT 20/12 A3029 RMK A01 T01950123  RH  065%=      5-min Rain = 0
KGU1 141220Z 36004KT 19/12 A3029 RMK A01 T01940122  RH  065%=      5-min Rain = 0
KGU1 141221Z 36004KT 19/12 A3029 RMK A01 T01930122  RH  066%=      5-min Rain = 0
KGU1 141222Z 35004KT 19/12 A3029 RMK A01 T01930121  RH  066%=      5-min Rain = 0
KGU1 141223Z 35004KT 19/12 A3029 RMK A01 T01920121  RH  066%=      5-min Rain = 0
KGU1 141224Z 34004KT 19/12 A3029 RMK A01 T01910121  RH  066%=      5-min Rain = 0
KGU1 141225Z 34005KT 19/12 A3029 RMK A01 T01910121  RH  067%=      5-min Rain = 0
KGU1 141226Z 35005KT 19/12 A3029 RMK A01 T01900121  RH  067%=      5-min Rain = 0
KGU1 141227Z 00004KT 19/12 A3029 RMK A01 T01910121  RH  066%=      5-min Rain = 0
KGU1 141228Z 01004KT 19/12 A3029 RMK A01 T01920121  RH  066%=      5-min Rain = 0
KGU1 141229Z 01004KT 19/12 A3029 RMK A01 T01910121  RH  066%=      5-min Rain = 0
KGU1 141230Z 03004KT 19/12 A3029 RMK A01 T01920120  RH  065%=      5-min Rain = 0
KGU1 141231Z 03004KT 19/12 A303 RMK A01 T01930119  RH  064%=      5-min Rain = 0
KGU1 141232Z 04004KT 20/12 A303 RMK A01 T01950119  RH  064%=      5-min Rain = 0
KGU1 141233Z 03004KT 20/12 A303 RMK A01 T01960118  RH  063%=      5-min Rain = 0
KGU1 141234Z 03004KT 20/12 A303 RMK A01 T01970118  RH  063%=      5-min Rain = 0
KGU1 141235Z 02003KT 20/12 A303 RMK A01 T01980118  RH  062%=      5-min Rain = 0
KGU1 141236Z 01003KT 20/12 A303 RMK A01 T01980118  RH  062%=      5-min Rain = 0
KGU1 141237Z 00004KT 20/12 A303 RMK A01 T01980119  RH  063%=      5-min Rain = 0
KGU1 141238Z 00003KT 20/12 A303 RMK A01 T01970119  RH  063%=      5-min Rain = 0
KGU1 141239Z 35003KT 20/12 A303 RMK A01 T01960120  RH  063%=      5-min Rain = 0
KGU1 141240Z 34003KT 20/12 A303 RMK A01 T01950120  RH  064%=      5-min Rain = 0
KGU1 141241Z 33003KT 20/12 A303 RMK A01 T01950121  RH  065%=      5-min Rain = 0
KGU1 141242Z 34003KT 19/12 A303 RMK A01 T01940122  RH  065%=      5-min Rain = 0
KGU1 141243Z 34003KT 19/12 A303 RMK A01 T01930122  RH  066%=      5-min Rain = 0
KGU1 141244Z 35003KT 19/12 A303 RMK A01 T01930121  RH  065%=      5-min Rain = 0
KGU1 141245Z 35003KT 20/12 A303 RMK A01 T01950120  RH  065%=      5-min Rain = 0
KGU1 141246Z 00003KT 20/12 A303 RMK A01 T01960120  RH  063%=      5-min Rain = 0
KGU1 141247Z 01003KT 20/12 A303 RMK A01 T01980119  RH  063%=      5-min Rain = 0
KGU1 141248Z 01003KT 20/12 A303 RMK A01 T01990120  RH  063%=      5-min Rain = 0
KGU1 141249Z 01003KT 20/12 A303 RMK A01 T02000120  RH  063%=      5-min Rain = 0
KGU1 141250Z 01003KT 20/12 A303 RMK A01 T02000121  RH  063%=      5-min Rain = 0
KGU1 141251Z 02003KT 20/12 A303 RMK A01 T01990120  RH  063%=      5-min Rain = 0
KGU1 141252Z 01003KT 20/12 A303 RMK A01 T02000121  RH  063%=      5-min Rain = 0
KGU1 141253Z 01003KT 20/12 A303 RMK A01 T02000121  RH  063%=      5-min Rain = 0
KGU1 141254Z 01003KT 20/12 A303 RMK A01 T02000121  RH  063%=      5-min Rain = 0
KGU1 141255Z 01004KT 20/12 A303 RMK A01 T02000122  RH  063%=      5-min Rain = 0
KGU1 141256Z 00004KT 20/12 A303 RMK A01 T02010122  RH  063%=      5-min Rain = 0
KGU1 141257Z 00005KT 20/12 A303 RMK A01 T02010123  RH  063%=      5-min Rain = 0
KGU1 141258Z 01004KT 20/12 A303 RMK A01 T02020122  RH  062%=      5-min Rain = 0
KGU1 141259Z 01005KT 20/12 A303 RMK A01 T02040122  RH  062%=      5-min Rain = 0
KGU1 141300Z 01005KT 21/12 A303 RMK A01 T02050122  RH  061%=      5-min Rain = 0
KGU1 141301Z 01004KT 21/12 A303 RMK A01 T02060121  RH  060%=      5-min Rain = 0
KGU1 141302Z 02004KT 21/12 A303 RMK A01 T02070122  RH  060%=      5-min Rain = 0
KGU1 141303Z 02004KT 21/12 A303 RMK A01 T02080122  RH  060%=      5-min Rain = 0
KGU1 141304Z 02004KT 21/12 A303 RMK A01 T02090122  RH  059%=      5-min Rain = 0
KGU1 141305Z 03004KT 21/12 A303 RMK A01 T02100122  RH  059%=      5-min Rain = 0
KGU1 141306Z 04004KT 21/12 A303 RMK A01 T02110123  RH  059%=      5-min Rain = 0
KGU1 141307Z 04005KT 21/12 A303 RMK A01 T02110123  RH  059%=      5-min Rain = 0
KGU1 141308Z 05005KT 21/12 A303 RMK A01 T02110122  RH  059%=      5-min Rain = 0
KGU1 141309Z 05004KT 21/12 A303 RMK A01 T02120122  RH  059%=      5-min Rain = 0
KGU1 141310Z 04004KT 21/12 A303 RMK A01 T02120122  RH  059%=      5-min Rain = 0
KGU1 141311Z 04005KT 21/12 A3031 RMK A01 T02130123  RH  058%=      5-min Rain = 0
KGU1 141312Z 04005KT 21/12 A3031 RMK A01 T02130121  RH  058%=      5-min Rain = 0
KGU1 141313Z 03006KT 21/12 A3031 RMK A01 T02130122  RH  058%=      5-min Rain = 0
KGU1 141314Z 04005KT 21/12 A3031 RMK A01 T02140121  RH  058%=      5-min Rain = 0
KGU1 141315Z 04006KT 21/12 A3031 RMK A01 T02140121  RH  058%=      5-min Rain = 0
KGU1 141316Z 04007KT 21/12 A3031 RMK A01 T02140119  RH  057%=      5-min Rain = 0
KGU1 141317Z 04007KT 21/12 A3031 RMK A01 T02140118  RH  057%=      5-min Rain = 0
KGU1 141318Z 04007KT 21/12 A3031 RMK A01 T02140117  RH  056%=      5-min Rain = 0
KGU1 141319Z 04006KT 21/12 A3031 RMK A01 T02130117  RH  056%=      5-min Rain = 0
KGU1 141320Z 04006KT 21/12 A3031 RMK A01 T02130118  RH  057%=      5-min Rain = 0
KGU1 141321Z 04005KT 21/12 A3031 RMK A01 T02130119  RH  057%=      5-min Rain = 0
KGU1 141322Z 04006KT 21/12 A3031 RMK A01 T02130119  RH  057%=      5-min Rain = 0
KGU1 141323Z 05006KT 21/12 A3031 RMK A01 T02130119  RH  057%=      5-min Rain = 0
KGU1 141324Z 04006KT 21/12 A3031 RMK A01 T02130119  RH  057%=      5-min Rain = 0
KGU1 141325Z 04006KT 21/12 A3031 RMK A01 T02130119  RH  057%=      5-min Rain = 0
KGU1 141326Z 04005KT 21/12 A3031 RMK A01 T02130120  RH  057%=      5-min Rain = 0
KGU1 141327Z 04005KT 21/12 A3031 RMK A01 T02140120  RH  057%=      5-min Rain = 0
KGU1 141328Z 05005KT 21/12 A3031 RMK A01 T02140121  RH  057%=      5-min Rain = 0
KGU1 141329Z 06005KT 21/12 A3031 RMK A01 T02140119  RH  057%=      5-min Rain = 0
KGU1 141330Z 06006KT 21/12 A3031 RMK A01 T02140119  RH  057%=      5-min Rain = 0
KGU1 141331Z 06006KT 21/12 A3031 RMK A01 T02140119  RH  057%=      5-min Rain = 0
KGU1 141332Z 06006KT 21/12 A3031 RMK A01 T02140117  RH  056%=      5-min Rain = 0
KGU1 141333Z 06006KT 21/12 A3031 RMK A01 T02140117  RH  056%=      5-min Rain = 0
KGU1 141334Z 06007KT 21/12 A3031 RMK A01 T02130116  RH  056%=      5-min Rain = 0
KGU1 141335Z 06005KT 21/12 A3031 RMK A01 T02130116  RH  056%=      5-min Rain = 0
KGU1 141336Z 06007KT 21/12 A3031 RMK A01 T02130115  RH  055%=      5-min Rain = 0
KGU1 141337Z 06007KT 21/11 A3031 RMK A01 T02130114  RH  055%=      5-min Rain = 0
KGU1 141338Z 05006KT 21/12 A3031 RMK A01 T02130115  RH  055%=      5-min Rain = 0
KGU1 141339Z 06005KT 21/12 A3031 RMK A01 T02140116  RH  055%=      5-min Rain = 0
KGU1 141340Z 05006KT 21/12 A3031 RMK A01 T02140116  RH  055%=      5-min Rain = 0
KGU1 141341Z 05006KT 22/12 A3032 RMK A01 T02150116  RH  055%=      5-min Rain = 0
KGU1 141342Z 05007KT 22/12 A3032 RMK A01 T02160116  RH  055%=      5-min Rain = 0
KGU1 141343Z 05007KT 22/12 A3032 RMK A01 T02160115  RH  054%=      5-min Rain = 0
KGU1 141344Z 05007KT 22/12 A3032 RMK A01 T02170117  RH  055%=      5-min Rain = 0
KGU1 141345Z 04007KT 22/12 A3032 RMK A01 T02170115  RH  054%=      5-min Rain = 0
KGU1 141346Z 05007KT 22/12 A3032 RMK A01 T02180115  RH  054%=      5-min Rain = 0
KGU1 141347Z 06007KT 22/12 A3032 RMK A01 T02180116  RH  054%=      5-min Rain = 0
KGU1 141348Z 06007KT 22/11 A3032 RMK A01 T02180114  RH  053%=      5-min Rain = 0
KGU1 141349Z 05008KT 22/11 A3032 RMK A01 T02180114  RH  053%=      5-min Rain = 0
KGU1 141350Z 06009KT 22/12 A3032 RMK A01 T02200115  RH  053%=      5-min Rain = 0
KGU1 141351Z 06007KT 22/11 A3032 RMK A01 T02210114  RH  053%=      5-min Rain = 0
KGU1 141352Z 06008KT 22/11 A3032 RMK A01 T02220114  RH  052%=      5-min Rain = 0
KGU1 141353Z 06008KT 22/11 A3032 RMK A01 T02230114  RH  052%=      5-min Rain = 0
KGU1 141354Z 06010KT 22/11 A3032 RMK A01 T02240114  RH  052%=      5-min Rain = 0
KGU1 141355Z 05011KT 22/12 A3032 RMK A01 T02240115  RH  052%=      5-min Rain = 0
KGU1 141356Z 06011KT 22/12 A3032 RMK A01 T02240115  RH  052%=      5-min Rain = 0
KGU1 141357Z 06009KT 23/12 A3032 RMK A01 T02250118  RH  053%=      5-min Rain = 0
KGU1 141358Z 06010G15KT 23/12 A3032 RMK A01 T02260121  RH  053%=      5-min Rain = 0
KGU1 141359Z 05011KT 23/12 A3032 RMK A01 T02260120  RH  053%=      5-min Rain = 0
KGU1 141400Z 05010KT 23/12 A3032 RMK A01 T02260124  RH  054%=      5-min Rain = 0
KGU1 141401Z 05015KT 23/12 A3032 RMK A01 T02260124  RH  055%=      5-min Rain = 0
KGU1 141402Z 05013KT 23/13 A3032 RMK A01 T02250125  RH  055%=      5-min Rain = 0
KGU1 141403Z 05014KT 22/13 A3032 RMK A01 T02240127  RH  056%=      5-min Rain = 0
KGU1 141404Z 05014KT 22/13 A3032 RMK A01 T02240133  RH  059%=      5-min Rain = 0
KGU1 141405Z 04013G18KT 22/13 A3032 RMK A01 T02230133  RH  059%=      5-min Rain = 0
KGU1 141406Z 06010KT 22/13 A3032 RMK A01 T02240133  RH  059%=      5-min Rain = 0
KGU1 141407Z 05014KT 23/13 A3032 RMK A01 T02250133  RH  059%=      5-min Rain = 0
KGU1 141408Z 05015KT 22/13 A3032 RMK A01 T02240131  RH  058%=      5-min Rain = 0
KGU1 141409Z 05013KT 22/13 A3032 RMK A01 T02230130  RH  058%=      5-min Rain = 0
KGU1 141410Z 05013KT 22/13 A3032 RMK A01 T02230130  RH  058%=      5-min Rain = 0
KGU1 141411Z 05011KT 22/13 A3032 RMK A01 T02240130  RH  058%=      5-min Rain = 0
KGU1 141412Z 04011KT 23/13 A3032 RMK A01 T02250130  RH  057%=      5-min Rain = 0
KGU1 141413Z 05015KT 23/13 A3032 RMK A01 T02260130  RH  057%=      5-min Rain = 0
KGU1 141414Z 04014KT 23/13 A3032 RMK A01 T02250130  RH  057%=      5-min Rain = 0
KGU1 141415Z 06014G19KT 23/14 A3032 RMK A01 T02250135  RH  059%=      5-min Rain = 0
KGU1 141416Z 05016KT 22/14 A3033 RMK A01 T02230142  RH  063%=      5-min Rain = 0
KGU1 141417Z 05016KT 22/14 A3033 RMK A01 T02210143  RH  064%=      5-min Rain = 0
KGU1 141418Z 05014G19KT 22/14 A3033 RMK A01 T02210143  RH  064%=      5-min Rain = 0
KGU1 141419Z 06013G18KT 22/14 A3033 RMK A01 T02220143  RH  064%=      5-min Rain = 0
KGU1 141420Z 06012KT 22/14 A3033 RMK A01 T02230143  RH  063%=      5-min Rain = 0
KGU1 141421Z 05015KT 22/14 A3033 RMK A01 T02230142  RH  063%=      5-min Rain = 0
KGU1 141422Z 06013KT 22/14 A3033 RMK A01 T02240142  RH  062%=      5-min Rain = 0
KGU1 141423Z 05014G20KT 23/15 A3033 RMK A01 T02250145  RH  063%=      5-min Rain = 0
KGU1 141424Z 06015KT 22/15 A3033 RMK A01 T02240147  RH  064%=      5-min Rain = 0
KGU1 141425Z 06015KT 23/15 A3033 RMK A01 T02250150  RH  066%=      5-min Rain = 0
KGU1 141426Z 06013KT 22/15 A3033 RMK A01 T02240152  RH  067%=      5-min Rain = 0
KGU1 141427Z 06014KT 22/15 A3033 RMK A01 T02240153  RH  067%=      5-min Rain = 0
KGU1 141428Z 06016G21KT 22/16 A3033 RMK A01 T02240155  RH  068%=      5-min Rain = 0
KGU1 141429Z 05015KT 22/16 A3033 RMK A01 T02220157  RH  070%=      5-min Rain = 0
KGU1 141430Z 05014G19KT 22/16 A3033 RMK A01 T02220160  RH  071%=      5-min Rain = 0
KGU1 141431Z 05015G20KT 22/16 A3033 RMK A01 T02210161  RH  072%=      5-min Rain = 0
KGU1 141432Z 06016KT 22/16 A3033 RMK A01 T02210161  RH  072%=      5-min Rain = 0
KGU1 141433Z 06015G20KT 22/16 A3033 RMK A01 T02200161  RH  073%=      5-min Rain = 0
KGU1 141434Z 06015KT 22/16 A3033 RMK A01 T02190161  RH  073%=      5-min Rain = 0
KGU1 141435Z 05016KT 22/16 A3033 RMK A01 T02190161  RH  073%=      5-min Rain = 0
KGU1 141436Z 05014KT 22/16 A3034 RMK A01 T02190162  RH  074%=      5-min Rain = 0
KGU1 141437Z 05011KT 22/16 A3033 RMK A01 T02200163  RH  074%=      5-min Rain = 0
KGU1 141438Z 06013KT 22/16 A3033 RMK A01 T02210163  RH  073%=      5-min Rain = 0
KGU1 141439Z 05013KT 22/16 A3034 RMK A01 T02210162  RH  072%=      5-min Rain = 0
KGU1 141440Z 05013KT 22/16 A3034 RMK A01 T02220162  RH  072%=      5-min Rain = 0
KGU1 141441Z 06015G20KT 22/16 A3033 RMK A01 T02210162  RH  072%=      5-min Rain = 0
KGU1 141442Z 06017KT 22/16 A3034 RMK A01 T02210162  RH  073%=      5-min Rain = 0
KGU1 141443Z 05016KT 22/16 A3034 RMK A01 T02200163  RH  073%=      5-min Rain = 0
KGU1 141444Z 05014KT 22/16 A3034 RMK A01 T02210164  RH  074%=      5-min Rain = 0
KGU1 141445Z 05013G18KT 22/16 A3034 RMK A01 T02220164  RH  073%=      5-min Rain = 0
KGU1 141446Z 05015KT 22/16 A3034 RMK A01 T02240164  RH  072%=      5-min Rain = 0
KGU1 141447Z 05013G18KT 23/17 A3034 RMK A01 T02250165  RH  072%=      5-min Rain = 0
KGU1 141448Z 06016G21KT 23/16 A3034 RMK A01 T02270164  RH  071%=      5-min Rain = 0
KGU1 141449Z 04014G19KT 23/16 A3034 RMK A01 T02270162  RH  070%=      5-min Rain = 0
KGU1 141450Z 04012G17KT 23/16 A3034 RMK A01 T02280162  RH  070%=      5-min Rain = 0
KGU1 141451Z 05014KT 23/16 A3034 RMK A01 T02290164  RH  070%=      5-min Rain = 0
KGU1 141452Z 05016G21KT 23/17 A3034 RMK A01 T02300165  RH  070%=      5-min Rain = 0
KGU1 141453Z 05018KT 23/16 A3034 RMK A01 T02270163  RH  071%=      5-min Rain = 0
KGU1 141454Z 04016KT 22/16 A3034 RMK A01 T02240163  RH  072%=      5-min Rain = 0
KGU1 141455Z 04016KT 22/16 A3034 RMK A01 T02230163  RH  072%=      5-min Rain = 0
KGU1 141456Z 04014KT 22/16 A3034 RMK A01 T02220163  RH  073%=      5-min Rain = 0
KGU1 141457Z 06013G19KT 22/16 A3034 RMK A01 T02220163  RH  073%=      5-min Rain = 0
KGU1 141458Z 05012KT 22/16 A3034 RMK A01 T02210162  RH  073%=      5-min Rain = 0
KGU1 141459Z 05013KT 22/16 A3034 RMK A01 T02210163  RH  073%=      5-min Rain = 0
KGU1 141500Z 05015KT 22/16 A3035 RMK A01 T02220162  RH  073%=      5-min Rain = 0
KGU1 141501Z 05014KT 22/16 A3034 RMK A01 T02220163  RH  073%=      5-min Rain = 0
KGU1 141502Z 05012KT 22/16 A3034 RMK A01 T02220163  RH  073%=      5-min Rain = 0
KGU1 141503Z 05015G20KT 22/16 A3035 RMK A01 T02230163  RH  072%=      5-min Rain = 0
KGU1 141504Z 05013G18KT 22/16 A3035 RMK A01 T02240162  RH  071%=      5-min Rain = 0
KGU1 141505Z 06016KT 23/16 A3035 RMK A01 T02250162  RH  071%=      5-min Rain = 0
KGU1 141506Z 05016KT 22/16 A3035 RMK A01 T02240162  RH  071%=      5-min Rain = 0
KGU1 141507Z 05014G19KT 22/16 A3035 RMK A01 T02230162  RH  072%=      5-min Rain = 0
KGU1 141508Z 04016G21KT 22/16 A3035 RMK A01 T02220161  RH  072%=      5-min Rain = 0
KGU1 141509Z 04016KT 22/16 A3035 RMK A01 T02210161  RH  072%=      5-min Rain = 0
KGU1 141510Z 04015KT 22/16 A3035 RMK A01 T02210162  RH  073%=      5-min Rain = 0
KGU1 141511Z 05018KT 22/16 A3035 RMK A01 T02220162  RH  072%=      5-min Rain = 0
KGU1 141512Z 06015KT 22/16 A3035 RMK A01 T02210162  RH  073%=      5-min Rain = 0
KGU1 141513Z 05015KT 22/16 A3036 RMK A01 T02210164  RH  073%=      5-min Rain = 0
KGU1 141514Z 05014G20KT 22/16 A3036 RMK A01 T02200164  RH  074%=      5-min Rain = 0
KGU1 141515Z 05015KT 22/16 A3036 RMK A01 T02190164  RH  074%=      5-min Rain = 0
KGU1 141516Z 05016KT 22/16 A3036 RMK A01 T02190164  RH  075%=      5-min Rain = 0
KGU1 141517Z 05018KT 22/17 A3036 RMK A01 T02180165  RH  075%=      5-min Rain = 0
KGU1 141518Z 05015KT 22/17 A3036 RMK A01 T02180165  RH  075%=      5-min Rain = 0
KGU1 141519Z 05016KT 22/17 A3036 RMK A01 T02210166  RH  075%=      5-min Rain = 0
KGU1 141520Z 05016KT 22/17 A3036 RMK A01 T02220165  RH  074%=      5-min Rain = 0
KGU1 141521Z 05014KT 22/17 A3036 RMK A01 T02220166  RH  074%=      5-min Rain = 0
KGU1 141522Z 05015KT 22/17 A3036 RMK A01 T02220165  RH  074%=      5-min Rain = 0
KGU1 141523Z 05016KT 22/17 A3036 RMK A01 T02210165  RH  074%=      5-min Rain = 0
KGU1 141524Z 05016KT 22/16 A3036 RMK A01 T02200164  RH  074%=      5-min Rain = 0
KGU1 141525Z 05016KT 22/17 A3036 RMK A01 T02190165  RH  075%=      5-min Rain = 0
KGU1 141526Z 05013G18KT 22/17 A3036 RMK A01 T02180166  RH  076%=      5-min Rain = 0
KGU1 141527Z 05012KT 22/17 A3036 RMK A01 T02200168  RH  076%=      5-min Rain = 0
KGU1 141528Z 04014G19KT 22/17 A3036 RMK A01 T02210167  RH  075%=      5-min Rain = 0
KGU1 141529Z 05014KT 22/17 A3036 RMK A01 T02210167  RH  075%=      5-min Rain = 0
KGU1 141530Z 04015KT 22/17 A3036 RMK A01 T02200167  RH  075%=      5-min Rain = 0
KGU1 141531Z 04013KT 22/17 A3036 RMK A01 T02180167  RH  076%=      5-min Rain = 0
KGU1 141532Z 04012KT 22/17 A3036 RMK A01 T02190168  RH  077%=      5-min Rain = 0
KGU1 141533Z 06013KT 22/17 A3036 RMK A01 T02200168  RH  076%=      5-min Rain = 0
KGU1 141534Z 06015G20KT 22/17 A3036 RMK A01 T02190167  RH  076%=      5-min Rain = 0
KGU1 141535Z 05014G19KT 22/17 A3037 RMK A01 T02160168  RH  077%=      5-min Rain = 0
KGU1 141536Z 05015KT 22/17 A3037 RMK A01 T02160168  RH  078%=      5-min Rain = 0
KGU1 141537Z 06012KT 22/17 A3036 RMK A01 T02150168  RH  078%=      5-min Rain = 0
KGU1 141538Z 06011KT 22/17 A3037 RMK A01 T02170168  RH  078%=      5-min Rain = 0
KGU1 141539Z 06015KT 22/17 A3037 RMK A01 T02180168  RH  077%=      5-min Rain = 0
KGU1 141540Z 05015KT 22/17 A3037 RMK A01 T02170167  RH  077%=      5-min Rain = 0
KGU1 141541Z 04015KT 22/17 A3037 RMK A01 T02150167  RH  078%=      5-min Rain = 0
KGU1 141542Z 04016KT 21/17 A3037 RMK A01 T02140167  RH  079%=      5-min Rain = 0
KGU1 141543Z 04014KT 21/17 A3037 RMK A01 T02140167  RH  079%=      5-min Rain = 0
KGU1 141544Z 04014KT 21/17 A3037 RMK A01 T02140167  RH  079%=      5-min Rain = 0
KGU1 141545Z 04015KT 21/17 A3037 RMK A01 T02140168  RH  079%=      5-min Rain = 0
KGU1 141546Z 04012KT 21/17 A3037 RMK A01 T02140168  RH  079%=      5-min Rain = 0
KGU1 141547Z 04011KT 21/17 A3037 RMK A01 T02140169  RH  079%=      5-min Rain = 0
KGU1 141548Z 06011KT 22/17 A3037 RMK A01 T02160169  RH  079%=      5-min Rain = 0
KGU1 141549Z 06013KT 22/17 A3037 RMK A01 T02160168  RH  078%=      5-min Rain = 0
KGU1 141550Z 07014KT 21/17 A3037 RMK A01 T02140167  RH  079%=      5-min Rain = 0
KGU1 141551Z 05014KT 21/17 A3037 RMK A01 T02130167  RH  079%=      5-min Rain = 0
KGU1 141552Z 05015KT 21/17 A3037 RMK A01 T02140167  RH  078%=      5-min Rain = 0
KGU1 141553Z 05016KT 21/17 A3037 RMK A01 T02140168  RH  079%=      5-min Rain = 0
KGU1 141554Z 05013G19KT 21/17 A3037 RMK A01 T02130168  RH  080%=      5-min Rain = 0
KGU1 141555Z 05015KT 21/17 A3037 RMK A01 T02130168  RH  079%=      5-min Rain = 0
KGU1 141556Z 06015KT 21/17 A3037 RMK A01 T02120168  RH  079%=      5-min Rain = 0
KGU1 141557Z 06014KT 21/17 A3038 RMK A01 T02120168  RH  080%=      5-min Rain = 0
KGU1 141558Z 06014KT 21/17 A3037 RMK A01 T02130168  RH  080%=      5-min Rain = 0
KGU1 141559Z 05015KT 21/17 A3038 RMK A01 T02140168  RH  079%=      5-min Rain = 0
KGU1 141600Z 05015KT 21/17 A3038 RMK A01 T02140168  RH  079%=      5-min Rain = 0
KGU1 141601Z 05012KT 21/17 A3038 RMK A01 T02140168  RH  079%=      5-min Rain = 0
KGU1 141602Z 06013G18KT 22/17 A3038 RMK A01 T02150168  RH  079%=      5-min Rain = 0
KGU1 141603Z 06015KT 21/17 A3038 RMK A01 T02140168  RH  079%=      5-min Rain = 0
KGU1 141604Z 06010KT 21/17 A3038 RMK A01 T02140169  RH  079%=      5-min Rain = 0
KGU1 141605Z 05015KT 22/17 A3038 RMK A01 T02150169  RH  079%=      5-min Rain = 0
KGU1 141606Z 05013KT 21/17 A3038 RMK A01 T02140169  RH  079%=      5-min Rain = 0
KGU1 141607Z 05013KT 21/17 A3038 RMK A01 T02140169  RH  079%=      5-min Rain = 0
KGU1 141608Z 05013G18KT 22/17 A3038 RMK A01 T02150170  RH  079%=      5-min Rain = 0
KGU1 141609Z 05013KT 22/17 A3038 RMK A01 T02160169  RH  079%=      5-min Rain = 0
KGU1 141610Z 06010G15KT 22/17 A3038 RMK A01 T02170170  RH  078%=      5-min Rain = 0
KGU1 141611Z 06015KT 22/17 A3038 RMK A01 T02180169  RH  077%=      5-min Rain = 0
KGU1 141612Z 05012KT 22/17 A3038 RMK A01 T02160168  RH  078%=      5-min Rain = 0
KGU1 141613Z 05009KT 22/17 A3038 RMK A01 T02170170  RH  078%=      5-min Rain = 0
KGU1 141614Z 04013KT 22/17 A3038 RMK A01 T02200170  RH  077%=      5-min Rain = 0
KGU1 141615Z 05012KT 22/17 A3038 RMK A01 T02200170  RH  077%=      5-min Rain = 0
KGU1 141616Z 04012G17KT 22/17 A3038 RMK A01 T02210170  RH  077%=      5-min Rain = 0
KGU1 141617Z 04012KT 22/17 A3038 RMK A01 T02210169  RH  076%=      5-min Rain = 0
KGU1 141618Z 05013KT 22/17 A3038 RMK A01 T02210169  RH  076%=      5-min Rain = 0
KGU1 141619Z 06014KT 22/17 A3038 RMK A01 T02190169  RH  077%=      5-min Rain = 0
KGU1 141620Z 05015KT 22/17 A3038 RMK A01 T02190169  RH  077%=      5-min Rain = 0
KGU1 141621Z 05015KT 22/17 A3038 RMK A01 T02190170  RH  078%=      5-min Rain = 0
KGU1 141622Z 04014KT 22/17 A3038 RMK A01 T02190169  RH  077%=      5-min Rain = 0
KGU1 141623Z 04012KT 22/17 A3038 RMK A01 T02190169  RH  077%=      5-min Rain = 0
KGU1 141624Z 05015KT 22/17 A3038 RMK A01 T02210169  RH  076%=      5-min Rain = 0
KGU1 141625Z 05014KT 22/17 A3038 RMK A01 T02210169  RH  076%=      5-min Rain = 0
KGU1 141626Z 06013KT 22/17 A3038 RMK A01 T02190170  RH  077%=      5-min Rain = 0
KGU1 141627Z 05012KT 22/17 A3038 RMK A01 T02200170  RH  077%=      5-min Rain = 0
KGU1 141628Z 05013G18KT 22/17 A3038 RMK A01 T02210170  RH  076%=      5-min Rain = 0
KGU1 141629Z 05014KT 22/17 A3038 RMK A01 T02200169  RH  076%=      5-min Rain = 0
KGU1 141630Z 05012KT 22/17 A3038 RMK A01 T02200169  RH  076%=      5-min Rain = 0
KGU1 141631Z 07012KT 22/17 A3038 RMK A01 T02200170  RH  077%=      5-min Rain = 0
KGU1 141632Z 06010KT 22/17 A3038 RMK A01 T02230171  RH  076%=      5-min Rain = 0
KGU1 141633Z 07010KT 23/17 A3038 RMK A01 T02250171  RH  075%=      5-min Rain = 0
KGU1 141634Z 07015KT 23/17 A3038 RMK A01 T02250169  RH  074%=      5-min Rain = 0
KGU1 141635Z 05015KT 22/17 A3039 RMK A01 T02220169  RH  076%=      5-min Rain = 0
KGU1 141636Z 06013KT 22/17 A3039 RMK A01 T02200169  RH  077%=      5-min Rain = 0
KGU1 141637Z 06015KT 22/17 A3039 RMK A01 T02200169  RH  077%=      5-min Rain = 0
KGU1 141638Z 06015KT 22/17 A3039 RMK A01 T02190169  RH  077%=      5-min Rain = 0
KGU1 141639Z 06012KT 22/17 A3039 RMK A01 T02180169  RH  077%=      5-min Rain = 0
KGU1 141640Z 06012KT 22/17 A3039 RMK A01 T02180169  RH  077%=      5-min Rain = 0
KGU1 141641Z 05011KT 22/17 A3039 RMK A01 T02180168  RH  077%=      5-min Rain = 0
KGU1 141642Z 04013KT 22/17 A3039 RMK A01 T02190168  RH  077%=      5-min Rain = 0
KGU1 141643Z 04015KT 22/17 A3039 RMK A01 T02190167  RH  076%=      5-min Rain = 0
KGU1 141644Z 04014KT 22/17 A3039 RMK A01 T02200168  RH  076%=      5-min Rain = 0
KGU1 141645Z 04012KT 22/17 A3039 RMK A01 T02210168  RH  075%=      5-min Rain = 0
KGU1 141646Z 05014KT 22/17 A3039 RMK A01 T02220168  RH  075%=      5-min Rain = 0
KGU1 141647Z 04015KT 22/17 A3039 RMK A01 T02220167  RH  074%=      5-min Rain = 0
KGU1 141648Z 05015KT 22/17 A3039 RMK A01 T02230167  RH  074%=      5-min Rain = 0
KGU1 141649Z 05014G19KT 22/17 A3039 RMK A01 T02230166  RH  074%=      5-min Rain = 0
KGU1 141650Z 05013G18KT 22/17 A3039 RMK A01 T02230167  RH  074%=      5-min Rain = 0
KGU1 141651Z 05016KT 22/17 A3039 RMK A01 T02220167  RH  074%=      5-min Rain = 0
KGU1 141652Z 04015KT 22/17 A3039 RMK A01 T02220168  RH  075%=      5-min Rain = 0
KGU1 141653Z 05013KT 22/17 A3039 RMK A01 T02220168  RH  075%=      5-min Rain = 0
KGU1 141654Z 06010KT 22/17 A3039 RMK A01 T02230170  RH  075%=      5-min Rain = 0
KGU1 141655Z 06009KT 23/17 A3038 RMK A01 T02270171  RH  074%=      5-min Rain = 0
KGU1 141656Z 07012KT 23/17 A3038 RMK A01 T02290171  RH  073%=      5-min Rain = 0
KGU1 141657Z 06014KT 23/17 A3038 RMK A01 T02290170  RH  073%=      5-min Rain = 0
KGU1 141658Z 06014KT 23/17 A3038 RMK A01 T02260170  RH  074%=      5-min Rain = 0
KGU1 141659Z 05012KT 22/17 A3039 RMK A01 T02240170  RH  075%=      5-min Rain = 0
KGU1 141700Z 06013KT 23/17 A3039 RMK A01 T02250171  RH  075%=      5-min Rain = 0
KGU1 141701Z 05013KT 23/17 A3038 RMK A01 T02250170  RH  075%=      5-min Rain = 0
KGU1 141702Z 05013KT 22/17 A3039 RMK A01 T02240169  RH  075%=      5-min Rain = 0
KGU1 141703Z 06015KT 22/17 A3038 RMK A01 T02230169  RH  075%=      5-min Rain = 0
KGU1 141704Z 06015KT 22/17 A3038 RMK A01 T02210169  RH  076%=      5-min Rain = 0
KGU1 141705Z 06013KT 22/17 A3039 RMK A01 T02210169  RH  076%=      5-min Rain = 0
KGU1 141706Z 06013KT 22/17 A3039 RMK A01 T02220169  RH  076%=      5-min Rain = 0
KGU1 141707Z 05014KT 22/17 A3039 RMK A01 T02210169  RH  076%=      5-min Rain = 0
KGU1 141708Z 05014KT 22/17 A3039 RMK A01 T02200169  RH  076%=      5-min Rain = 0
KGU1 141709Z 04014KT 22/17 A3039 RMK A01 T02190169  RH  077%=      5-min Rain = 0
KGU1 141710Z 05013KT 22/17 A3039 RMK A01 T02200169  RH  077%=      5-min Rain = 0
KGU1 141711Z 06012G17KT 22/17 A3039 RMK A01 T02200170  RH  077%=      5-min Rain = 0
KGU1 141712Z 06013KT 22/17 A3039 RMK A01 T02200170  RH  077%=      5-min Rain = 0
KGU1 141713Z 05015KT 22/17 A3039 RMK A01 T02210170  RH  076%=      5-min Rain = 0
KGU1 141714Z 06013KT 22/17 A3039 RMK A01 T02200170  RH  077%=      5-min Rain = 0
KGU1 141715Z 06013KT 22/17 A3039 RMK A01 T02200170  RH  077%=      5-min Rain = 0
KGU1 141716Z 06014KT 22/17 A3039 RMK A01 T02190170  RH  078%=      5-min Rain = 0
KGU1 141717Z 06015G20KT 22/17 A3039 RMK A01 T02180170  RH  078%=      5-min Rain = 0
KGU1 141718Z 05014G19KT 22/17 A3039 RMK A01 T02190171  RH  078%=      5-min Rain = 0
KGU1 141719Z 06015KT 22/17 A3039 RMK A01 T02200171  RH  077%=      5-min Rain = 0
KGU1 141720Z 06015G20KT 22/17 A3039 RMK A01 T02190170  RH  078%=      5-min Rain = 0
KGU1 141721Z 06013G18KT 22/17 A3039 RMK A01 T02190172  RH  079%=      5-min Rain = 0
KGU1 141722Z 07015KT 22/17 A3039 RMK A01 T02180174  RH  080%=      5-min Rain = 0
KGU1 141723Z 06016KT 22/17 A3039 RMK A01 T02160173  RH  080%=      5-min Rain = 0
KGU1 141724Z 05014G19KT 22/17 A3039 RMK A01 T02160172  RH  080%=      5-min Rain = 0
KGU1 141725Z 05015KT 22/17 A3039 RMK A01 T02190173  RH  079%=      5-min Rain = 0
KGU1 141726Z 05016KT 22/17 A3039 RMK A01 T02230174  RH  078%=      5-min Rain = 0
KGU1 141727Z 05016G21KT 22/17 A3039 RMK A01 T02240172  RH  076%=      5-min Rain = 0
KGU1 141728Z 04016KT 22/17 A3039 RMK A01 T02230171  RH  077%=      5-min Rain = 0
KGU1 141729Z 05016KT 22/17 A3039 RMK A01 T02210171  RH  077%=      5-min Rain = 0
KGU1 141730Z 05015G20KT 22/17 A3038 RMK A01 T02230174  RH  078%=      5-min Rain = 0
KGU1 141731Z 05015G21KT 23/17 A3039 RMK A01 T02280174  RH  076%=      5-min Rain = 0
KGU1 141732Z 06016G21KT 23/17 A3038 RMK A01 T02340174  RH  073%=      5-min Rain = 0
KGU1 141733Z 05014KT 23/17 A3038 RMK A01 T02340172  RH  072%=      5-min Rain = 0
KGU1 141734Z 04014KT 24/17 A3038 RMK A01 T02350174  RH  072%=      5-min Rain = 0
KGU1 141735Z 05013KT 24/18 A3038 RMK A01 T02390175  RH  071%=      5-min Rain = 0
KGU1 141736Z 05012KT 24/17 A3038 RMK A01 T02380173  RH  070%=      5-min Rain = 0
KGU1 141737Z 05014G19KT 24/17 A3038 RMK A01 T02380174  RH  071%=      5-min Rain = 0
KGU1 141738Z 06016G21KT 24/17 A3038 RMK A01 T02350172  RH  071%=      5-min Rain = 0
KGU1 141739Z 05014G19KT 23/17 A3038 RMK A01 T02320171  RH  072%=      5-min Rain = 0
KGU1 141740Z 05018G23KT 23/17 A3038 RMK A01 T02290172  RH  074%=      5-min Rain = 0
KGU1 141741Z 05014G19KT 23/17 A3038 RMK A01 T02260171  RH  075%=      5-min Rain = 0
KGU1 141742Z 06013KT 23/17 A3038 RMK A01 T02270173  RH  075%=      5-min Rain = 0
KGU1 141743Z 05019KT 23/17 A3038 RMK A01 T02290173  RH  074%=      5-min Rain = 0
KGU1 141744Z 04016G21KT 23/17 A3038 RMK A01 T02300173  RH  074%=      5-min Rain = 0
KGU1 141745Z 05015KT 23/17 A3038 RMK A01 T02330173  RH  073%=      5-min Rain = 0
KGU1 141746Z 05014KT 24/17 A3038 RMK A01 T02370173  RH  071%=      5-min Rain = 0
KGU1 141747Z 06020KT 24/17 A3038 RMK A01 T02380172  RH  070%=      5-min Rain = 0
KGU1 141748Z 06018KT 24/17 A3038 RMK A01 T02390170  RH  069%=      5-min Rain = 0
KGU1 141749Z 05017KT 24/17 A3038 RMK A01 T02380169  RH  068%=      5-min Rain = 0
KGU1 141750Z 05016KT 24/17 A3038 RMK A01 T02380170  RH  069%=      5-min Rain = 0
KGU1 141751Z 04018G25KT 24/17 A3038 RMK A01 T02410171  RH  068%=      5-min Rain = 0
KGU1 141752Z 04018G23KT 24/17 A3038 RMK A01 T02400170  RH  068%=      5-min Rain = 0
KGU1 141753Z 06016KT 24/17 A3038 RMK A01 T02410170  RH  068%=      5-min Rain = 0
KGU1 141754Z 05017G22KT 24/17 A3038 RMK A01 T02410169  RH  068%=      5-min Rain = 0
KGU1 141755Z 04015KT 24/17 A3038 RMK A01 T02400168  RH  067%=      5-min Rain = 0
KGU1 141756Z 05018G24KT 24/17 A3038 RMK A01 T02410167  RH  067%=      5-min Rain = 0
KGU1 141757Z 05018KT 24/17 A3038 RMK A01 T02390165  RH  066%=      5-min Rain = 0
KGU1 141758Z 05017G22KT 24/17 A3038 RMK A01 T02380166  RH  067%=      5-min Rain = 0
KGU1 141759Z 05017KT 24/17 A3038 RMK A01 T02380168  RH  068%=      5-min Rain = 0
KGU1 141800Z 05015KT 24/17 A3038 RMK A01 T02380168  RH  068%=      5-min Rain = 0
KGU1 141801Z 05017KT 24/17 A3038 RMK A01 T02400168  RH  067%=      5-min Rain = 0
KGU1 141802Z 05014KT 24/17 A3038 RMK A01 T02400168  RH  068%=      5-min Rain = 0
KGU1 141803Z 06012G17KT 24/17 A3038 RMK A01 T02410169  RH  067%=      5-min Rain = 0
KGU1 141804Z 05014KT 24/17 A3037 RMK A01 T02430169  RH  067%=      5-min Rain = 0
KGU1 141805Z 06019KT 24/17 A3037 RMK A01 T02430169  RH  066%=      5-min Rain = 0
KGU1 141806Z 05020G25KT 24/17 A3037 RMK A01 T02400167  RH  067%=      5-min Rain = 0
KGU1 141807Z 05016KT 24/17 A3037 RMK A01 T02410168  RH  067%=      5-min Rain = 0
KGU1 141808Z 04017KT 24/17 A3037 RMK A01 T02430168  RH  066%=      5-min Rain = 0
KGU1 141809Z 03016KT 24/17 A3037 RMK A01 T02420167  RH  066%=      5-min Rain = 0
KGU1 141810Z 05017KT 24/17 A3037 RMK A01 T02410166  RH  066%=      5-min Rain = 0
KGU1 141811Z 04016G25KT 24/17 A3038 RMK A01 T02410166  RH  066%=      5-min Rain = 0
KGU1 141812Z 05018KT 24/17 A3038 RMK A01 T02400165  RH  066%=      5-min Rain = 0
KGU1 141813Z 04015G20KT 24/17 A3037 RMK A01 T02400167  RH  067%=      5-min Rain = 0
KGU1 141814Z 05012KT 25/17 A3037 RMK A01 T02450169  RH  065%=      5-min Rain = 0
KGU1 141815Z 04016KT 25/17 A3037 RMK A01 T02520170  RH  064%=      5-min Rain = 0
KGU1 141816Z 04018KT 25/17 A3037 RMK A01 T02480168  RH  064%=      5-min Rain = 0
KGU1 141817Z 05015KT 24/17 A3037 RMK A01 T02440168  RH  066%=      5-min Rain = 0
KGU1 141818Z 07015KT 25/17 A3037 RMK A01 T02460168  RH  065%=      5-min Rain = 0
KGU1 141819Z 07015KT 25/17 A3037 RMK A01 T02480167  RH  064%=      5-min Rain = 0
KGU1 141820Z 06014G20KT 25/17 A3037 RMK A01 T02500168  RH  063%=      5-min Rain = 0
KGU1 141821Z 05015KT 25/17 A3037 RMK A01 T02490166  RH  063%=      5-min Rain = 0
KGU1 141822Z 05017KT 25/17 A3037 RMK A01 T02460165  RH  064%=      5-min Rain = 0
KGU1 141823Z 05017G22KT 24/17 A3038 RMK A01 T02440165  RH  064%=      5-min Rain = 0
KGU1 141824Z 05016KT 24/17 A3037 RMK A01 T02440166  RH  065%=      5-min Rain = 0
KGU1 141825Z 04015KT 24/17 A3038 RMK A01 T02430166  RH  065%=      5-min Rain = 0
KGU1 141826Z 05017KT 25/17 A3037 RMK A01 T02450166  RH  065%=      5-min Rain = 0
KGU1 141827Z 04017KT 24/17 A3037 RMK A01 T02430165  RH  065%=      5-min Rain = 0
KGU1 141828Z 04016G22KT 24/17 A3037 RMK A01 T02430166  RH  065%=      5-min Rain = 0
KGU1 141829Z 05014G19KT 25/17 A3037 RMK A01 T02450167  RH  065%=      5-min Rain = 0
KGU1 141830Z 04015KT 25/17 A3037 RMK A01 T02470168  RH  064%=      5-min Rain = 0
KGU1 141831Z 04015KT 25/17 A3037 RMK A01 T02480168  RH  064%=      5-min Rain = 0
KGU1 141832Z 05013KT 25/17 A3037 RMK A01 T02480168  RH  064%=      5-min Rain = 0
KGU1 141833Z 06016G21KT 25/17 A3037 RMK A01 T02480167  RH  064%=      5-min Rain = 0
KGU1 141834Z 06014G19KT 25/17 A3037 RMK A01 T02470166  RH  064%=      5-min Rain = 0
KGU1 141835Z 04014G19KT 25/17 A3037 RMK A01 T02490167  RH  063%=      5-min Rain = 0
KGU1 141836Z 06015G21KT 25/17 A3037 RMK A01 T02520166  RH  062%=      5-min Rain = 0
KGU1 141837Z 05014G19KT 25/17 A3037 RMK A01 T02510166  RH  062%=      5-min Rain = 0
KGU1 141838Z 06011G17KT 25/17 A3037 RMK A01 T02490166  RH  063%=      5-min Rain = 0
KGU1 141839Z 05014G19KT 25/17 A3037 RMK A01 T02490167  RH  063%=      5-min Rain = 0
KGU1 141840Z 05015KT 25/16 A3037 RMK A01 T02450164  RH  063%=      5-min Rain = 0
KGU1 141841Z 06015G20KT 24/17 A3037 RMK A01 T02440166  RH  065%=      5-min Rain = 0
KGU1 141842Z 07013KT 25/17 A3037 RMK A01 T02460166  RH  064%=      5-min Rain = 0
KGU1 141843Z 07014G19KT 25/17 A3037 RMK A01 T02490165  RH  062%=      5-min Rain = 0
KGU1 141844Z 06012KT 25/17 A3037 RMK A01 T02520165  RH  061%=      5-min Rain = 0
KGU1 141845Z 04012G17KT 26/17 A3037 RMK A01 T02550166  RH  060%=      5-min Rain = 0
KGU1 141846Z 04012G18KT 26/17 A3037 RMK A01 T02550165  RH  060%=      5-min Rain = 0
KGU1 141847Z 05015KT 26/17 A3037 RMK A01 T02580165  RH  059%=      5-min Rain = 0
KGU1 141848Z 04014KT 25/16 A3037 RMK A01 T02510161  RH  060%=      5-min Rain = 0
KGU1 141849Z 04013G18KT 25/16 A3037 RMK A01 T02470161  RH  062%=      5-min Rain = 0
KGU1 141850Z 04014KT 25/16 A3037 RMK A01 T02450161  RH  062%=      5-min Rain = 0
KGU1 141851Z 03014KT 25/16 A3037 RMK A01 T02450161  RH  062%=      5-min Rain = 0
KGU1 141852Z 04012KT 24/16 A3037 RMK A01 T02420164  RH  065%=      5-min Rain = 0
KGU1 141853Z 07013KT 25/16 A3037 RMK A01 T02470164  RH  063%=      5-min Rain = 0
KGU1 141854Z 07012KT 25/16 A3037 RMK A01 T02490163  RH  062%=      5-min Rain = 0
KGU1 141855Z 06011G18KT 25/16 A3037 RMK A01 T02490164  RH  062%=      5-min Rain = 0
KGU1 141856Z 06014KT 25/16 A3037 RMK A01 T02500163  RH  062%=      5-min Rain = 0
KGU1 141857Z 05011G16KT 25/17 A3037 RMK A01 T02490165  RH  062%=      5-min Rain = 0
KGU1 141858Z 05010KT 25/16 A3037 RMK A01 T02510164  RH  061%=      5-min Rain = 0
KGU1 141859Z 04010KT 25/16 A3037 RMK A01 T02510161  RH  060%=      5-min Rain = 0
KGU1 141900Z 03014KT 25/16 A3037 RMK A01 T02490162  RH  061%=      5-min Rain = 0
KGU1 141901Z 03012KT 25/16 A3037 RMK A01 T02490162  RH  061%=      5-min Rain = 0
KGU1 141902Z 04013KT 26/16 A3037 RMK A01 T02550163  RH  060%=      5-min Rain = 0
KGU1 141903Z 03010G15KT 25/16 A3037 RMK A01 T02520162  RH  060%=      5-min Rain = 0
KGU1 141904Z 04011KT 25/16 A3037 RMK A01 T02510162  RH  060%=      5-min Rain = 0
KGU1 141905Z 04012KT 25/16 A3037 RMK A01 T02500161  RH  061%=      5-min Rain = 0
KGU1 141906Z 04013KT 25/16 A3037 RMK A01 T02480160  RH  061%=      5-min Rain = 0
KGU1 141907Z 05012KT 25/16 A3036 RMK A01 T02490162  RH  061%=      5-min Rain = 0
KGU1 141908Z 05014KT 25/16 A3036 RMK A01 T02520160  RH  059%=      5-min Rain = 0
KGU1 141909Z 05012KT 25/16 A3036 RMK A01 T02540158  RH  058%=      5-min Rain = 0
KGU1 141910Z 05011KT 25/16 A3036 RMK A01 T02530156  RH  057%=      5-min Rain = 0
KGU1 141911Z 07014KT 25/16 A3036 RMK A01 T02540156  RH  057%=      5-min Rain = 0
KGU1 141912Z 07010KT 25/16 A3036 RMK A01 T02530157  RH  058%=      5-min Rain = 0
KGU1 141913Z 06012KT 25/16 A3036 RMK A01 T02530158  RH  058%=      5-min Rain = 0
KGU1 141914Z 05012KT 25/16 A3036 RMK A01 T02530160  RH  059%=      5-min Rain = 0
KGU1 141915Z 05012G17KT 25/16 A3036 RMK A01 T02540161  RH  059%=      5-min Rain = 0
KGU1 141916Z 04011KT 26/16 A3036 RMK A01 T02560160  RH  058%=      5-min Rain = 0
KGU1 141917Z 06013KT 26/16 A3036 RMK A01 T02610160  RH  056%=      5-min Rain = 0
KGU1 141918Z 05014KT 26/16 A3036 RMK A01 T02610158  RH  056%=      5-min Rain = 0
KGU1 141919Z 07012KT 26/16 A3036 RMK A01 T02590157  RH  056%=      5-min Rain = 0
KGU1 141920Z 05012KT 26/16 A3036 RMK A01 T02580159  RH  057%=      5-min Rain = 0
KGU1 141921Z 03013KT 26/16 A3036 RMK A01 T02600160  RH  057%=      5-min Rain = 0
KGU1 141922Z 05010KT 26/16 A3035 RMK A01 T02600161  RH  057%=      5-min Rain = 0
KGU1 141923Z 06010KT 26/16 A3035 RMK A01 T02600159  RH  056%=      5-min Rain = 0
KGU1 141924Z 07012KT 26/16 A3035 RMK A01 T02630161  RH  056%=      5-min Rain = 0
KGU1 141925Z 06013G18KT 27/16 A3035 RMK A01 T02670162  RH  055%=      5-min Rain = 0
KGU1 141926Z 06013G19KT 27/16 A3035 RMK A01 T02650161  RH  055%=      5-min Rain = 0
KGU1 141927Z 05013KT 26/16 A3035 RMK A01 T02610161  RH  057%=      5-min Rain = 0
KGU1 141928Z 04012KT 26/16 A3035 RMK A01 T02610162  RH  057%=      5-min Rain = 0
KGU1 141929Z 03012KT 26/16 A3035 RMK A01 T02630161  RH  056%=      5-min Rain = 0
KGU1 141930Z 05010KT 26/16 A3035 RMK A01 T02610158  RH  056%=      5-min Rain = 0
KGU1 141931Z 07010G15KT 26/16 A3035 RMK A01 T02580159  RH  057%=      5-min Rain = 0
KGU1 141932Z 09010KT 26/16 A3035 RMK A01 T02610158  RH  056%=      5-min Rain = 0
KGU1 141933Z 07012G18KT 26/16 A3035 RMK A01 T02640158  RH  055%=      5-min Rain = 0
KGU1 141934Z 05009G14KT 27/16 A3035 RMK A01 T02650157  RH  054%=      5-min Rain = 0
KGU1 141935Z 04010KT 27/16 A3035 RMK A01 T02660159  RH  054%=      5-min Rain = 0
KGU1 141936Z 03011KT 27/16 A3035 RMK A01 T02650159  RH  055%=      5-min Rain = 0
KGU1 141937Z 05012KT 26/16 A3035 RMK A01 T02640159  RH  055%=      5-min Rain = 0
KGU1 141938Z 02009G14KT 27/16 A3035 RMK A01 T02670160  RH  054%=      5-min Rain = 0
KGU1 141939Z 02011KT 27/16 A3034 RMK A01 T02700159  RH  053%=      5-min Rain = 0
KGU1 141940Z 06010G15KT 27/16 A3034 RMK A01 T02680159  RH  054%=      5-min Rain = 0
KGU1 141941Z 05012KT 27/16 A3034 RMK A01 T02680157  RH  053%=      5-min Rain = 0
KGU1 141942Z 05012KT 27/16 A3034 RMK A01 T02650155  RH  053%=      5-min Rain = 0
KGU1 141943Z 04010G15KT 26/16 A3034 RMK A01 T02630156  RH  054%=      5-min Rain = 0
KGU1 141944Z 06010KT 26/15 A3034 RMK A01 T02640152  RH  053%=      5-min Rain = 0
KGU1 141945Z 03007KT 26/15 A3034 RMK A01 T02630151  RH  053%=      5-min Rain = 0
KGU1 141946Z 04009KT 26/15 A3034 RMK A01 T02610153  RH  054%=      5-min Rain = 0
KGU1 141947Z 05011KT 26/16 A3034 RMK A01 T02630155  RH  054%=      5-min Rain = 0
KGU1 141948Z 05009KT 26/16 A3034 RMK A01 T02640155  RH  054%=      5-min Rain = 0
KGU1 141949Z 04010KT 26/16 A3034 RMK A01 T02640157  RH  054%=      5-min Rain = 0
KGU1 141950Z 04011KT 27/16 A3034 RMK A01 T02680158  RH  054%=      5-min Rain = 0
KGU1 141951Z 04007KT 26/16 A3034 RMK A01 T02640157  RH  054%=      5-min Rain = 0
KGU1 141952Z 04007KT 26/16 A3034 RMK A01 T02600157  RH  056%=      5-min Rain = 0
KGU1 141953Z 06010KT 26/16 A3034 RMK A01 T02600157  RH  056%=      5-min Rain = 0
KGU1 141954Z 06009KT 26/16 A3034 RMK A01 T02620156  RH  054%=      5-min Rain = 0
KGU1 141955Z 05010KT 26/16 A3033 RMK A01 T02630156  RH  054%=      5-min Rain = 0
KGU1 141956Z 02012KT 27/16 A3034 RMK A01 T02670157  RH  054%=      5-min Rain = 0
KGU1 141957Z 06011KT 27/16 A3033 RMK A01 T02690156  RH  052%=      5-min Rain = 0
KGU1 141958Z 07012KT 27/15 A3033 RMK A01 T02700154  RH  051%=      5-min Rain = 0
KGU1 141959Z 06010KT 27/15 A3033 RMK A01 T02700154  RH  051%=      5-min Rain = 0
KGU1 142000Z 06009KT 27/16 A3033 RMK A01 T02690155  RH  052%=      5-min Rain = 0
KGU1 142001Z 06008KT 27/15 A3033 RMK A01 T02660154  RH  053%=      5-min Rain = 0
KGU1 142002Z 04010G16KT 27/16 A3033 RMK A01 T02690156  RH  052%=      5-min Rain = 0
KGU1 142003Z 04014KT 27/16 A3033 RMK A01 T02690157  RH  053%=      5-min Rain = 0
KGU1 142004Z 04012KT 27/16 A3033 RMK A01 T02650156  RH  054%=      5-min Rain = 0
KGU1 142005Z 04011KT 26/16 A3033 RMK A01 T02640157  RH  054%=      5-min Rain = 0
KGU1 142006Z 05008KT 27/16 A3033 RMK A01 T02650157  RH  054%=      5-min Rain = 0
KGU1 142007Z 05011KT 27/16 A3033 RMK A01 T02680155  RH  052%=      5-min Rain = 0
KGU1 142008Z 07011KT 27/16 A3033 RMK A01 T02690155  RH  052%=      5-min Rain = 0
KGU1 142009Z 07010G16KT 27/16 A3033 RMK A01 T02680155  RH  053%=      5-min Rain = 0
KGU1 142010Z 06009G16KT 27/16 A3033 RMK A01 T02670155  RH  053%=      5-min Rain = 0
KGU1 142011Z 05010KT 27/16 A3033 RMK A01 T02660156  RH  053%=      5-min Rain = 0
KGU1 142012Z 05011KT 27/16 A3033 RMK A01 T02690155  RH  052%=      5-min Rain = 0
KGU1 142013Z 06009KT 27/16 A3033 RMK A01 T02680155  RH  052%=      5-min Rain = 0
KGU1 142014Z 08007KT 27/16 A3032 RMK A01 T02670157  RH  053%=      5-min Rain = 0
KGU1 142015Z 07005KT 27/16 A3032 RMK A01 T02700157  RH  053%=      5-min Rain = 0
KGU1 142016Z 07007KT 27/16 A3032 RMK A01 T02740157  RH  051%=      5-min Rain = 0
KGU1 142017Z 07010KT 27/16 A3032 RMK A01 T02730156  RH  051%=      5-min Rain = 0
KGU1 142018Z 05012KT 27/16 A3032 RMK A01 T02730156  RH  051%=      5-min Rain = 0
KGU1 142019Z 03009KT 27/16 A3032 RMK A01 T02710156  RH  052%=      5-min Rain = 0
KGU1 142020Z 02008KT 27/16 A3032 RMK A01 T02740156  RH  051%=      5-min Rain = 0
KGU1 142021Z 03010KT 27/16 A3032 RMK A01 T02720155  RH  051%=      5-min Rain = 0
KGU1 142022Z 04009KT 27/15 A3032 RMK A01 T02690154  RH  052%=      5-min Rain = 0
KGU1 142023Z 06011KT 27/16 A3032 RMK A01 T02710155  RH  051%=      5-min Rain = 0
KGU1 142024Z 06011KT 27/15 A3032 RMK A01 T02720153  RH  051%=      5-min Rain = 0
KGU1 142025Z 03010KT 27/15 A3032 RMK A01 T02710154  RH  051%=      5-min Rain = 0
KGU1 142026Z 02010KT 27/15 A3032 RMK A01 T02720153  RH  051%=      5-min Rain = 0
KGU1 142027Z 05008G13KT 27/15 A3032 RMK A01 T02720154  RH  051%=      5-min Rain = 0
KGU1 142028Z 07011KT 27/15 A3032 RMK A01 T02740154  RH  050%=      5-min Rain = 0
KGU1 142029Z 04011KT 28/15 A3032 RMK A01 T02760153  RH  049%=      5-min Rain = 0
KGU1 142030Z 04012KT 28/15 A3032 RMK A01 T02770152  RH  049%=      5-min Rain = 0
KGU1 142031Z 03008KT 27/15 A3032 RMK A01 T02740152  RH  049%=      5-min Rain = 0
KGU1 142032Z 05009KT 27/15 A3032 RMK A01 T02710151  RH  050%=      5-min Rain = 0
KGU1 142033Z 07010KT 27/15 A3032 RMK A01 T02700152  RH  051%=      5-min Rain = 0
KGU1 142034Z 06005KT 27/15 A3032 RMK A01 T02690153  RH  051%=      5-min Rain = 0
KGU1 142035Z 02006KT 27/15 A3032 RMK A01 T02690153  RH  051%=      5-min Rain = 0
KGU1 142036Z 03007KT 27/16 A3032 RMK A01 T02730155  RH  051%=      5-min Rain = 0
KGU1 142037Z 04010KT 28/16 A3032 RMK A01 T02750156  RH  050%=      5-min Rain = 0
KGU1 142038Z 03011KT 28/16 A3032 RMK A01 T02750156  RH  051%=      5-min Rain = 0
KGU1 142039Z 04009KT 27/15 A3032 RMK A01 T02740154  RH  050%=      5-min Rain = 0
KGU1 142040Z 05008KT 27/16 A3032 RMK A01 T02720155  RH  051%=      5-min Rain = 0
KGU1 142041Z 05007KT 27/15 A3032 RMK A01 T02730152  RH  050%=      5-min Rain = 0
KGU1 142042Z 05005KT 27/15 A3031 RMK A01 T02720151  RH  050%=      5-min Rain = 0
KGU1 142043Z 05006KT 27/15 A3031 RMK A01 T02720152  RH  050%=      5-min Rain = 0
KGU1 142044Z 03011KT 28/15 A3031 RMK A01 T02760154  RH  050%=      5-min Rain = 0
KGU1 142045Z 04011KT 28/15 A3031 RMK A01 T02760153  RH  049%=      5-min Rain = 0
KGU1 142046Z 07008KT 28/15 A3031 RMK A01 T02750152  RH  049%=      5-min Rain = 0
KGU1 142047Z 07009KT 28/15 A3031 RMK A01 T02800150  RH  047%=      5-min Rain = 0
KGU1 142048Z 07008KT 28/15 A3031 RMK A01 T02820149  RH  046%=      5-min Rain = 0
KGU1 142049Z 07009KT 28/15 A3031 RMK A01 T02800149  RH  047%=      5-min Rain = 0
KGU1 142050Z 06009KT 28/15 A3031 RMK A01 T02790150  RH  047%=      5-min Rain = 0
KGU1 142051Z 06010KT 28/15 A3031 RMK A01 T02810152  RH  048%=      5-min Rain = 0
KGU1 142052Z 05013KT 28/15 A3031 RMK A01 T02790153  RH  048%=      5-min Rain = 0
KGU1 142053Z 06010KT 28/15 A3031 RMK A01 T02770152  RH  049%=      5-min Rain = 0
KGU1 142054Z 07009G14KT 28/15 A3031 RMK A01 T02770152  RH  049%=      5-min Rain = 0
KGU1 142055Z 04011KT 28/15 A3031 RMK A01 T02760151  RH  049%=      5-min Rain = 0
KGU1 142056Z 04012KT 28/15 A3031 RMK A01 T02770152  RH  048%=      5-min Rain = 0
KGU1 142057Z 07012KT 28/15 A3031 RMK A01 T02760150  RH  048%=      5-min Rain = 0
KGU1 142058Z 08011KT 28/15 A3031 RMK A01 T02750150  RH  049%=      5-min Rain = 0
KGU1 142059Z 04013KT 28/15 A3031 RMK A01 T02780151  RH  048%=      5-min Rain = 0
KGU1 142100Z 02011KT 28/15 A3031 RMK A01 T02760152  RH  049%=      5-min Rain = 0
KGU1 142101Z 06008KT 28/15 A3031 RMK A01 T02750153  RH  049%=      5-min Rain = 0
KGU1 142102Z 03010KT 28/15 A3031 RMK A01 T02760153  RH  049%=      5-min Rain = 0
KGU1 142103Z 02007KT 28/15 A3031 RMK A01 T02760151  RH  049%=      5-min Rain = 0
KGU1 142104Z 01009G16KT 27/15 A3031 RMK A01 T02740151  RH  049%=      5-min Rain = 0
KGU1 142105Z 03010KT 28/15 A303 RMK A01 T02760152  RH  049%=      5-min Rain = 0
KGU1 142106Z 05013G18KT 28/15 A303 RMK A01 T02780152  RH  048%=      5-min Rain = 0
KGU1 142107Z 06010KT 28/15 A303 RMK A01 T02820151  RH  047%=      5-min Rain = 0
KGU1 142108Z 06011KT 28/15 A303 RMK A01 T02830151  RH  047%=      5-min Rain = 0
KGU1 142109Z 05011KT 29/15 A303 RMK A01 T02850149  RH  046%=      5-min Rain = 0
KGU1 142110Z 06009KT 28/15 A303 RMK A01 T02820147  RH  046%=      5-min Rain = 0
KGU1 142111Z 06009KT 28/15 A303 RMK A01 T02810148  RH  046%=      5-min Rain = 0
KGU1 142112Z 04010KT 28/15 A303 RMK A01 T02830149  RH  046%=      5-min Rain = 0
KGU1 142113Z 04012KT 28/15 A303 RMK A01 T02820149  RH  046%=      5-min Rain = 0
KGU1 142114Z 05011KT 28/15 A303 RMK A01 T02820149  RH  046%=      5-min Rain = 0
KGU1 142115Z 04008KT 28/15 A303 RMK A01 T02820147  RH  046%=      5-min Rain = 0
KGU1 142116Z 04006KT 28/15 A303 RMK A01 T02800149  RH  047%=      5-min Rain = 0
KGU1 142117Z 05006KT 28/15 A303 RMK A01 T02810148  RH  046%=      5-min Rain = 0
KGU1 142118Z 06012G17KT 28/15 A303 RMK A01 T02780149  RH  047%=      5-min Rain = 0
KGU1 142119Z 06011KT 28/15 A303 RMK A01 T02780149  RH  047%=      5-min Rain = 0
KGU1 142120Z 06011KT 28/15 A303 RMK A01 T02790150  RH  047%=      5-min Rain = 0
KGU1 142121Z 07008KT 28/15 A303 RMK A01 T02790150  RH  047%=      5-min Rain = 0
KGU1 142122Z 05007KT 28/15 A303 RMK A01 T02780150  RH  048%=      5-min Rain = 0
KGU1 142123Z 05005KT 28/15 A3029 RMK A01 T02800151  RH  048%=      5-min Rain = 0
KGU1 142124Z 03009KT 29/15 A303 RMK A01 T02850151  RH  046%=      5-min Rain = 0
KGU1 142125Z 04009KT 28/15 A303 RMK A01 T02830150  RH  046%=      5-min Rain = 0
KGU1 142126Z 04011KT 28/15 A303 RMK A01 T02830149  RH  046%=      5-min Rain = 0
KGU1 142127Z 06011KT 28/15 A303 RMK A01 T02820148  RH  046%=      5-min Rain = 0
KGU1 142128Z 07011KT 28/15 A3029 RMK A01 T02820148  RH  046%=      5-min Rain = 0
KGU1 142129Z 06011KT 28/15 A3029 RMK A01 T02810146  RH  045%=      5-min Rain = 0
KGU1 142130Z 07009KT 28/15 A3029 RMK A01 T02810145  RH  045%=      5-min Rain = 0
KGU1 142131Z 05011KT 28/15 A303 RMK A01 T02840146  RH  045%=      5-min Rain = 0
KGU1 142132Z 06006KT 29/14 A3029 RMK A01 T02850144  RH  044%=      5-min Rain = 0
KGU1 142133Z 05006KT 28/14 A3029 RMK A01 T02830144  RH  044%=      5-min Rain = 0
KGU1 142134Z 05008G15KT 28/14 A3029 RMK A01 T02810144  RH  045%=      5-min Rain = 0
KGU1 142135Z 03011KT 28/14 A3029 RMK A01 T02790144  RH  045%=      5-min Rain = 0
KGU1 142136Z 05009KT 28/15 A3029 RMK A01 T02810145  RH  045%=      5-min Rain = 0
KGU1 142137Z 08011KT 29/14 A3029 RMK A01 T02860142  RH  043%=      5-min Rain = 0
KGU1 142138Z 06012KT 28/14 A3029 RMK A01 T02840141  RH  043%=      5-min Rain = 0
KGU1 142139Z 06010KT 28/14 A3029 RMK A01 T02830144  RH  045%=      5-min Rain = 0
KGU1 142140Z 07009KT 28/14 A3029 RMK A01 T02800144  RH  045%=      5-min Rain = 0
KGU1 142141Z 04012KT 28/14 A3029 RMK A01 T02800144  RH  045%=      5-min Rain = 0
KGU1 142142Z 04011KT 28/14 A3029 RMK A01 T02810144  RH  045%=      5-min Rain = 0
KGU1 142143Z 05008KT 28/15 A3029 RMK A01 T02820146  RH  045%=      5-min Rain = 0
KGU1 142144Z 05008KT 28/14 A3029 RMK A01 T02810143  RH  045%=      5-min Rain = 0
KGU1 142145Z 03007KT 28/14 A3029 RMK A01 T02800141  RH  044%=      5-min Rain = 0
KGU1 142146Z 03004KT 28/14 A3029 RMK A01 T02790141  RH  044%=      5-min Rain = 0
KGU1 142147Z 03007KT 28/14 A3029 RMK A01 T02790144  RH  045%=      5-min Rain = 0
KGU1 142148Z 06011KT 28/15 A3029 RMK A01 T02800145  RH  045%=      5-min Rain = 0
KGU1 142149Z 05010KT 28/15 A3029 RMK A01 T02830145  RH  045%=      5-min Rain = 0
KGU1 142150Z 05011KT 29/15 A3029 RMK A01 T02860145  RH  044%=      5-min Rain = 0
KGU1 142151Z 04014KT 29/14 A3029 RMK A01 T02860142  RH  043%=      5-min Rain = 0
KGU1 142152Z 06011G16KT 28/14 A3029 RMK A01 T02830142  RH  044%=      5-min Rain = 0
KGU1 142153Z 07010KT 28/14 A3029 RMK A01 T02820141  RH  044%=      5-min Rain = 0
KGU1 142154Z 08012KT 28/14 A3029 RMK A01 T02800142  RH  045%=      5-min Rain = 0
KGU1 142155Z 10008KT 28/14 A3029 RMK A01 T02790142  RH  045%=      5-min Rain = 0
KGU1 142156Z 12008KT 28/15 A3029 RMK A01 T02790145  RH  046%=      5-min Rain = 0
KGU1 142157Z 10008KT 28/15 A3028 RMK A01 T02810146  RH  046%=      5-min Rain = 0
KGU1 142158Z 09007KT 28/15 A3028 RMK A01 T02820145  RH  045%=      5-min Rain = 0
KGU1 142159Z 07005KT 28/15 A3028 RMK A01 T02820145  RH  045%=      5-min Rain = 0
KGU1 142200Z 06008KT 28/15 A3028 RMK A01 T02810145  RH  045%=      5-min Rain = 0
KGU1 142201Z 06012KT 28/15 A3028 RMK A01 T02820145  RH  045%=      5-min Rain = 0
KGU1 142202Z 05011KT 28/14 A3028 RMK A01 T02800144  RH  045%=      5-min Rain = 0
KGU1 142203Z 05009KT 28/14 A3028 RMK A01 T02790144  RH  046%=      5-min Rain = 0
KGU1 142204Z 05008KT 28/14 A3028 RMK A01 T02780144  RH  046%=      5-min Rain = 0
KGU1 142205Z 07007KT 28/14 A3028 RMK A01 T02770143  RH  046%=      5-min Rain = 0
KGU1 142206Z 05008G17KT 28/14 A3028 RMK A01 T02780143  RH  046%=      5-min Rain = 0
KGU1 142207Z 07012G17KT 28/14 A3028 RMK A01 T02820141  RH  044%=      5-min Rain = 0
KGU1 142208Z 07011KT 28/14 A3028 RMK A01 T02840140  RH  043%=      5-min Rain = 0
KGU1 142209Z 06008KT 28/14 A3028 RMK A01 T02840139  RH  043%=      5-min Rain = 0
KGU1 142210Z 08009KT 28/14 A3028 RMK A01 T02840141  RH  043%=      5-min Rain = 0
KGU1 142211Z 07012KT 29/14 A3028 RMK A01 T02850143  RH  044%=      5-min Rain = 0
KGU1 142212Z 08011KT 28/14 A3028 RMK A01 T02840142  RH  044%=      5-min Rain = 0
KGU1 142213Z 09010KT 29/14 A3028 RMK A01 T02860143  RH  043%=      5-min Rain = 0
KGU1 142214Z 08011KT 29/14 A3028 RMK A01 T02880142  RH  042%=      5-min Rain = 0
KGU1 142215Z 08009KT 29/14 A3028 RMK A01 T02870141  RH  043%=      5-min Rain = 0
KGU1 142216Z 09008KT 28/14 A3028 RMK A01 T02830142  RH  044%=      5-min Rain = 0
KGU1 142217Z 08007KT 29/14 A3028 RMK A01 T02880142  RH  043%=      5-min Rain = 0
KGU1 142218Z 09006KT 29/14 A3028 RMK A01 T02880141  RH  042%=      5-min Rain = 0
KGU1 142219Z 08006KT 29/14 A3028 RMK A01 T02860142  RH  043%=      5-min Rain = 0
KGU1 142220Z 07006KT 29/14 A3028 RMK A01 T02900143  RH  043%=      5-min Rain = 0
KGU1 142221Z 06008KT 29/14 A3028 RMK A01 T02930144  RH  042%=      5-min Rain = 0
KGU1 142222Z 04014G19KT 29/15 A3028 RMK A01 T02930145  RH  042%=      5-min Rain = 0
KGU1 142223Z 07009KT 30/15 A3028 RMK A01 T02950145  RH  042%=      5-min Rain = 0
KGU1 142224Z 08014KT 29/14 A3028 RMK A01 T02940144  RH  042%=      5-min Rain = 0
KGU1 142225Z 07014KT 29/14 A3028 RMK A01 T02880143  RH  043%=      5-min Rain = 0
KGU1 142226Z 06012KT 28/14 A3028 RMK A01 T02810143  RH  045%=      5-min Rain = 0
KGU1 142227Z 06010KT 28/14 A3028 RMK A01 T02780140  RH  045%=      5-min Rain = 0
KGU1 142228Z 06011KT 28/14 A3028 RMK A01 T02760140  RH  045%=      5-min Rain = 0
KGU1 142229Z 08011KT 27/14 A3028 RMK A01 T02740139  RH  045%=      5-min Rain = 0
KGU1 142230Z 08009KT 27/14 A3028 RMK A01 T02730139  RH  046%=      5-min Rain = 0
KGU1 142231Z 09008KT 27/14 A3027 RMK A01 T02740140  RH  046%=      5-min Rain = 0
KGU1 142232Z 08008KT 27/14 A3027 RMK A01 T02740141  RH  046%=      5-min Rain = 0
KGU1 142233Z 06007KT 28/14 A3027 RMK A01 T02750141  RH  046%=      5-min Rain = 0
KGU1 142234Z 05006KT 28/14 A3027 RMK A01 T02790141  RH  045%=      5-min Rain = 0
KGU1 142235Z 06011KT 28/14 A3027 RMK A01 T02830141  RH  044%=      5-min Rain = 0
KGU1 142236Z 07008KT 28/14 A3027 RMK A01 T02810142  RH  044%=      5-min Rain = 0
KGU1 142237Z 07008KT 28/14 A3027 RMK A01 T02830143  RH  044%=      5-min Rain = 0
KGU1 142238Z 06008KT 29/14 A3027 RMK A01 T02860142  RH  043%=      5-min Rain = 0
KGU1 142239Z 05009KT 29/14 A3027 RMK A01 T02870144  RH  043%=      5-min Rain = 0
KGU1 142240Z 06007KT 29/15 A3027 RMK A01 T02880145  RH  043%=      5-min Rain = 0
KGU1 142241Z 07011KT 29/14 A3027 RMK A01 T02870143  RH  043%=      5-min Rain = 0
KGU1 142242Z 06008G13KT 28/14 A3027 RMK A01 T02840140  RH  043%=      5-min Rain = 0
KGU1 142243Z 04011KT 29/14 A3027 RMK A01 T02860138  RH  042%=      5-min Rain = 0
KGU1 142244Z 05012G17KT 29/14 A3027 RMK A01 T02850135  RH  041%=      5-min Rain = 0
KGU1 142245Z 06013KT 28/13 A3027 RMK A01 T02800134  RH  042%=      5-min Rain = 0
KGU1 142246Z 06012KT 28/14 A3027 RMK A01 T02780135  RH  043%=      5-min Rain = 0
KGU1 142247Z 06010KT 28/14 A3027 RMK A01 T02790136  RH  043%=      5-min Rain = 0
KGU1 142248Z 05011KT 28/14 A3027 RMK A01 T02820139  RH  043%=      5-min Rain = 0
KGU1 142249Z 06007KT 28/14 A3027 RMK A01 T02840141  RH  043%=      5-min Rain = 0
KGU1 142250Z 08009KT 29/14 A3027 RMK A01 T02850140  RH  043%=      5-min Rain = 0
KGU1 142251Z 07010KT 28/14 A3027 RMK A01 T02840139  RH  043%=      5-min Rain = 0
KGU1 142252Z 05008KT 29/14 A3027 RMK A01 T02850140  RH  043%=      5-min Rain = 0
KGU1 142253Z 06008KT 29/14 A3027 RMK A01 T02850140  RH  043%=      5-min Rain = 0
KGU1 142254Z 04009KT 29/14 A3027 RMK A01 T02850141  RH  043%=      5-min Rain = 0
KGU1 142255Z 04006KT 29/14 A3027 RMK A01 T02860141  RH  043%=      5-min Rain = 0
KGU1 142256Z 04009KT 29/14 A3027 RMK A01 T02870141  RH  043%=      5-min Rain = 0
KGU1 142257Z 04008KT 29/14 A3027 RMK A01 T02860141  RH  043%=      5-min Rain = 0
KGU1 142258Z 06010KT 29/14 A3026 RMK A01 T02870142  RH  043%=      5-min Rain = 0
KGU1 142259Z 08010KT 29/14 A3026 RMK A01 T02900142  RH  042%=      5-min Rain = 0
KGU1 142300Z 09013KT 29/14 A3026 RMK A01 T02930142  RH  041%=      5-min Rain = 0
KGU1 142301Z 08014KT 29/14 A3026 RMK A01 T02910141  RH  042%=      5-min Rain = 0
KGU1 142302Z 09012KT 29/14 A3026 RMK A01 T02880141  RH  042%=      5-min Rain = 0
KGU1 142303Z 09013KT 28/14 A3026 RMK A01 T02840140  RH  043%=      5-min Rain = 0
KGU1 142304Z 08012KT 28/14 A3026 RMK A01 T02810140  RH  044%=      5-min Rain = 0
KGU1 142305Z 09010KT 28/14 A3026 RMK A01 T02790140  RH  044%=      5-min Rain = 0
KGU1 142306Z 09011KT 28/14 A3026 RMK A01 T02770139  RH  045%=      5-min Rain = 0
KGU1 142307Z 09010KT 28/14 A3026 RMK A01 T02760139  RH  045%=      5-min Rain = 0
KGU1 142308Z 09009KT 28/14 A3026 RMK A01 T02750138  RH  045%=      5-min Rain = 0
KGU1 142309Z 09011KT 28/14 A3026 RMK A01 T02780140  RH  044%=      5-min Rain = 0
KGU1 142310Z 07010KT 28/14 A3026 RMK A01 T02800139  RH  044%=      5-min Rain = 0
KGU1 142311Z 06008KT 28/14 A3026 RMK A01 T02820136  RH  042%=      5-min Rain = 0
KGU1 142312Z 05009KT 29/13 A3026 RMK A01 T02850134  RH  041%=      5-min Rain = 0
KGU1 142313Z 08008KT 29/14 A3026 RMK A01 T02850135  RH  042%=      5-min Rain = 0
KGU1 142314Z 09011KT 29/14 A3026 RMK A01 T02850136  RH  042%=      5-min Rain = 0
KGU1 142315Z 09008KT 28/14 A3026 RMK A01 T02830137  RH  042%=      5-min Rain = 0
KGU1 142316Z 08011KT 28/13 A3026 RMK A01 T02830134  RH  042%=      5-min Rain = 0
KGU1 142317Z 07012KT 28/13 A3026 RMK A01 T02820133  RH  042%=      5-min Rain = 0
KGU1 142318Z 09009KT 28/13 A3026 RMK A01 T02820133  RH  041%=      5-min Rain = 0
KGU1 142319Z 09008KT 28/13 A3026 RMK A01 T02830134  RH  042%=      5-min Rain = 0
KGU1 142320Z 07007KT 29/14 A3026 RMK A01 T02850136  RH  042%=      5-min Rain = 0
KGU1 142321Z 08008KT 28/14 A3026 RMK A01 T02840137  RH  042%=      5-min Rain = 0
KGU1 142322Z 09007KT 28/14 A3026 RMK A01 T02840138  RH  042%=      5-min Rain = 0
KGU1 142323Z 10007KT 29/14 A3026 RMK A01 T02850138  RH  042%=      5-min Rain = 0
KGU1 142324Z 09011KT 29/14 A3026 RMK A01 T02870141  RH  043%=      5-min Rain = 0
KGU1 142325Z 09013KT 29/14 A3026 RMK A01 T02880142  RH  043%=      5-min Rain = 0
KGU1 142326Z 07013KT 29/14 A3026 RMK A01 T02870141  RH  043%=      5-min Rain = 0
KGU1 142327Z 07011KT 29/14 A3026 RMK A01 T02860141  RH  043%=      5-min Rain = 0
KGU1 142328Z 07009KT 29/14 A3026 RMK A01 T02850140  RH  043%=      5-min Rain = 0
KGU1 142329Z 06008KT 28/14 A3026 RMK A01 T02830139  RH  043%=      5-min Rain = 0
KGU1 142330Z 08013KT 28/14 A3026 RMK A01 T02810137  RH  043%=      5-min Rain = 0
KGU1 142331Z 09010KT 28/13 A3026 RMK A01 T02810134  RH  042%=      5-min Rain = 0
KGU1 142332Z 10009KT 28/13 A3026 RMK A01 T02810132  RH  042%=      5-min Rain = 0
KGU1 142333Z 09010KT 28/13 A3026 RMK A01 T02800132  RH  042%=      5-min Rain = 0
KGU1 142334Z 08008KT 28/13 A3026 RMK A01 T02800132  RH  042%=      5-min Rain = 0
KGU1 142335Z 07008KT 28/13 A3026 RMK A01 T02830134  RH  042%=      5-min Rain = 0
KGU1 142336Z 07011KT 29/13 A3026 RMK A01 T02860134  RH  041%=      5-min Rain = 0
KGU1 142337Z 07007KT 28/13 A3026 RMK A01 T02840131  RH  041%=      5-min Rain = 0
KGU1 142338Z 07007KT 28/13 A3026 RMK A01 T02830131  RH  041%=      5-min Rain = 0
KGU1 142339Z 08009KT 28/13 A3026 RMK A01 T02840129  RH  040%=      5-min Rain = 0
KGU1 142340Z 08009KT 29/13 A3026 RMK A01 T02850126  RH  039%=      5-min Rain = 0
KGU1 142341Z 08010KT 29/13 A3026 RMK A01 T02860125  RH  039%=      5-min Rain = 0
KGU1 142342Z 09010KT 28/12 A3026 RMK A01 T02840124  RH  039%=      5-min Rain = 0
KGU1 142343Z 08008KT 28/12 A3026 RMK A01 T02840122  RH  038%=      5-min Rain = 0
KGU1 142344Z 05006KT 29/12 A3026 RMK A01 T02850123  RH  038%=      5-min Rain = 0
KGU1 142345Z 05010KT 29/12 A3026 RMK A01 T02860123  RH  038%=      5-min Rain = 0
KGU1 142346Z 06007KT 28/12 A3026 RMK A01 T02830122  RH  038%=      5-min Rain = 0
KGU1 142347Z 05009KT 28/13 A3026 RMK A01 T02820125  RH  039%=      5-min Rain = 0
KGU1 142348Z 06011KT 28/13 A3026 RMK A01 T02820127  RH  040%=      5-min Rain = 0
KGU1 142349Z 07010KT 28/13 A3026 RMK A01 T02820128  RH  040%=      5-min Rain = 0
KGU1 142350Z 05009KT 28/13 A3026 RMK A01 T02830129  RH  040%=      5-min Rain = 0
KGU1 142351Z 06007KT 28/13 A3026 RMK A01 T02820128  RH  040%=      5-min Rain = 0
KGU1 142352Z 08007KT 28/13 A3026 RMK A01 T02830130  RH  040%=      5-min Rain = 0
KGU1 142353Z 06008KT 28/13 A3026 RMK A01 T02840131  RH  041%=      5-min Rain = 0
KGU1 142354Z 07009KT 28/13 A3026 RMK A01 T02830129  RH  040%=      5-min Rain = 0
KGU1 142355Z 08009KT 28/13 A3026 RMK A01 T02820130  RH  041%=      5-min Rain = 0
KGU1 142356Z 08009KT 28/13 A3026 RMK A01 T02830128  RH  040%=      5-min Rain = 0
KGU1 142357Z 09009KT 28/12 A3026 RMK A01 T02840122  RH  038%=      5-min Rain = 0
KGU1 142358Z 09007KT 28/12 A3026 RMK A01 T02830124  RH  039%=      5-min Rain = 0
KGU1 142359Z 08009KT 28/12 A3026 RMK A01 T02820124  RH  039%=      5-min Rain = 0
KGU1 150000Z 07006KT 28/12 A3026 RMK A01 T02820124  RH  039%=      5-min Rain = 0
KGU1 150001Z 07007KT 28/12 A3026 RMK A01 T02820124  RH  039%=      5-min Rain = 0
KGU1 150002Z 07010KT 28/12 A3026 RMK A01 T02830124  RH  039%=      5-min Rain = 0
KGU1 150003Z 08008KT 28/12 A3026 RMK A01 T02830122  RH  038%=      5-min Rain = 0
KGU1 150004Z 08008KT 28/12 A3026 RMK A01 T02830121  RH  038%=      5-min Rain = 0
KGU1 150005Z 08008KT 28/12 A3026 RMK A01 T02830120  RH  038%=      5-min Rain = 0
KGU1 150006Z 08009KT 28/12 A3026 RMK A01 T02830119  RH  038%=      5-min Rain = 0
KGU1 150007Z 09007KT 28/12 A3026 RMK A01 T02820117  RH  037%=      5-min Rain = 0
KGU1 150008Z 09006KT 28/12 A3026 RMK A01 T02810117  RH  038%=      5-min Rain = 0
KGU1 150009Z 09006KT 28/12 A3026 RMK A01 T02810119  RH  038%=      5-min Rain = 0
KGU1 150010Z 08007KT 28/12 A3026 RMK A01 T02810120  RH  038%=      5-min Rain = 0
KGU1 150011Z 09009KT 28/12 A3026 RMK A01 T02810121  RH  038%=      5-min Rain = 0
KGU1 150012Z 08006KT 28/12 A3026 RMK A01 T02810122  RH  039%=      5-min Rain = 0
KGU1 150013Z 08006KT 28/12 A3026 RMK A01 T02820122  RH  039%=      5-min Rain = 0
KGU1 150014Z 09007KT 28/12 A3026 RMK A01 T02820124  RH  039%=      5-min Rain = 0
KGU1 150015Z 09009KT 28/13 A3026 RMK A01 T02820126  RH  039%=      5-min Rain = 0
KGU1 150016Z 08007KT 28/13 A3026 RMK A01 T02820125  RH  040%=      5-min Rain = 0
KGU1 150017Z 07007KT 28/13 A3026 RMK A01 T02810125  RH  039%=      5-min Rain = 0
KGU1 150018Z 08005KT 28/13 A3026 RMK A01 T02790125  RH  040%=      5-min Rain = 0
KGU1 150019Z 09005KT 28/13 A3026 RMK A01 T02780125  RH  040%=      5-min Rain = 0
KGU1 150020Z 07006KT 28/12 A3026 RMK A01 T02790124  RH  040%=      5-min Rain = 0
KGU1 150021Z 06007KT 28/12 A3026 RMK A01 T02800124  RH  040%=      5-min Rain = 0
KGU1 150022Z 06009KT 28/13 A3026 RMK A01 T02800125  RH  040%=      5-min Rain = 0
KGU1 150023Z 06008KT 28/13 A3026 RMK A01 T02800125  RH  040%=      5-min Rain = 0
KGU1 150024Z 08008KT 28/13 A3026 RMK A01 T02800126  RH  040%=      5-min Rain = 0
KGU1 150025Z 08007KT 28/13 A3026 RMK A01 T02790129  RH  041%=      5-min Rain = 0
KGU1 150026Z 08006KT 28/13 A3026 RMK A01 T02790129  RH  041%=      5-min Rain = 0
KGU1 150027Z 08007KT 28/13 A3026 RMK A01 T02800129  RH  041%=      5-min Rain = 0
KGU1 150028Z 08007KT 28/13 A3026 RMK A01 T02800130  RH  041%=      5-min Rain = 0
KGU1 150029Z 09006KT 28/13 A3026 RMK A01 T02800130  RH  041%=      5-min Rain = 0
KGU1 150030Z 08006KT 28/13 A3026 RMK A01 T02800130  RH  041%=      5-min Rain = 0
KGU1 150031Z 08005KT 28/13 A3026 RMK A01 T02790129  RH  041%=      5-min Rain = 0
KGU1 150032Z 05005KT 28/13 A3026 RMK A01 T02780129  RH  041%=      5-min Rain = 0
KGU1 150033Z 05005KT 28/13 A3026 RMK A01 T02770127  RH  041%=      5-min Rain = 0
KGU1 150034Z 05006KT 28/13 A3026 RMK A01 T02760127  RH  041%=      5-min Rain = 0
KGU1 150035Z 05004KT 28/13 A3026 RMK A01 T02750128  RH  042%=      5-min Rain = 0
KGU1 150036Z 06004KT 27/13 A3026 RMK A01 T02740128  RH  042%=      5-min Rain = 0
KGU1 150037Z 08006KT 27/13 A3026 RMK A01 T02740128  RH  042%=      5-min Rain = 0
KGU1 150038Z 06005KT 27/13 A3026 RMK A01 T02740129  RH  042%=      5-min Rain = 0
KGU1 150039Z 06005KT 27/13 A3026 RMK A01 T02740129  RH  042%=      5-min Rain = 0
KGU1 150040Z 06006KT 27/13 A3026 RMK A01 T02740129  RH  043%=      5-min Rain = 0
KGU1 150041Z 07005KT 27/13 A3026 RMK A01 T02730129  RH  043%=      5-min Rain = 0
KGU1 150042Z 05007KT 27/13 A3026 RMK A01 T02730130  RH  043%=      5-min Rain = 0
KGU1 150043Z 04006KT 27/13 A3026 RMK A01 T02720130  RH  043%=      5-min Rain = 0
KGU1 150044Z 07005KT 27/13 A3026 RMK A01 T02720130  RH  043%=      5-min Rain = 0
KGU1 150045Z 04005KT 27/13 A3026 RMK A01 T02720130  RH  043%=      5-min Rain = 0
KGU1 150046Z 05006KT 27/13 A3026 RMK A01 T02710131  RH  044%=      5-min Rain = 0
KGU1 150047Z 07005KT 27/13 A3026 RMK A01 T02710131  RH  044%=      5-min Rain = 0
KGU1 150048Z 06004KT 27/13 A3026 RMK A01 T02710130  RH  043%=      5-min Rain = 0
KGU1 150049Z 06006KT 27/13 A3026 RMK A01 T02710130  RH  043%=      5-min Rain = 0
KGU1 150050Z 04006KT 27/13 A3027 RMK A01 T02710130  RH  044%=      5-min Rain = 0
KGU1 150051Z 04006KT 27/13 A3027 RMK A01 T02710130  RH  044%=      5-min Rain = 0
KGU1 150052Z 04006KT 27/13 A3027 RMK A01 T02700130  RH  044%=      5-min Rain = 0
KGU1 150053Z 04005KT 27/13 A3027 RMK A01 T02700130  RH  044%=      5-min Rain = 0
KGU1 150054Z 05006KT 27/13 A3027 RMK A01 T02700131  RH  044%=      5-min Rain = 0
KGU1 150055Z 05006KT 27/13 A3027 RMK A01 T02700131  RH  044%=      5-min Rain = 0
KGU1 150056Z 04005KT 27/13 A3027 RMK A01 T02700131  RH  044%=      5-min Rain = 0
KGU1 150057Z 04005KT 27/13 A3027 RMK A01 T02690130  RH  044%=      5-min Rain = 0
KGU1 150058Z 05004KT 27/13 A3027 RMK A01 T02690130  RH  044%=      5-min Rain = 0
KGU1 150059Z 06005KT 27/13 A3027 RMK A01 T02690130  RH  044%=      5-min Rain = 0
KGU1 150100Z 05005KT 27/13 A3027 RMK A01 T02690130  RH  044%=      5-min Rain = 0
KGU1 150101Z 05005KT 27/13 A3027 RMK A01 T02690131  RH  044%=      5-min Rain = 0
KGU1 150102Z 05005KT 27/13 A3027 RMK A01 T02680131  RH  044%=      5-min Rain = 0
KGU1 150103Z 05005KT 27/13 A3027 RMK A01 T02680131  RH  044%=      5-min Rain = 0
KGU1 150104Z 05004KT 27/13 A3027 RMK A01 T02680131  RH  045%=      5-min Rain = 0
KGU1 150105Z 05004KT 27/13 A3027 RMK A01 T02670131  RH  045%=      5-min Rain = 0
KGU1 150106Z 05005KT 27/13 A3027 RMK A01 T02670131  RH  045%=      5-min Rain = 0
KGU1 150107Z 06004KT 27/13 A3027 RMK A01 T02670131  RH  045%=      5-min Rain = 0
KGU1 150108Z 06004KT 27/13 A3027 RMK A01 T02660131  RH  045%=      5-min Rain = 0
KGU1 150109Z 06005KT 27/13 A3027 RMK A01 T02660131  RH  045%=      5-min Rain = 0
KGU1 150110Z 06004KT 27/13 A3027 RMK A01 T02660131  RH  045%=      5-min Rain = 0
KGU1 150111Z 06004KT 27/13 A3027 RMK A01 T02660131  RH  045%=      5-min Rain = 0
KGU1 150112Z 06004KT 27/13 A3027 RMK A01 T02660131  RH  045%=      5-min Rain = 0
KGU1 150113Z 06004KT 27/13 A3027 RMK A01 T02660131  RH  045%=      5-min Rain = 0
KGU1 150114Z 07003KT 27/13 A3027 RMK A01 T02650131  RH  045%=      5-min Rain = 0
KGU1 150115Z 07004KT 27/13 A3027 RMK A01 T02650132  RH  045%=      5-min Rain = 0
KGU1 150116Z 06004KT 27/13 A3027 RMK A01 T02650132  RH  046%=      5-min Rain = 0
KGU1 150117Z 06004KT 27/13 A3028 RMK A01 T02650132  RH  046%=      5-min Rain = 0
KGU1 150118Z 06004KT 27/13 A3028 RMK A01 T02650132  RH  046%=      5-min Rain = 0
KGU1 150119Z 05004KT 26/13 A3027 RMK A01 T02640132  RH  046%=      5-min Rain = 0
KGU1 150120Z 05005KT 26/13 A3028 RMK A01 T02640132  RH  046%=      5-min Rain = 0
KGU1 150121Z 05005KT 26/13 A3028 RMK A01 T02640131  RH  046%=      5-min Rain = 0
KGU1 150122Z 05004KT 26/13 A3028 RMK A01 T02640132  RH  046%=      5-min Rain = 0
KGU1 150123Z 05004KT 26/13 A3028 RMK A01 T02640132  RH  046%=      5-min Rain = 0
KGU1 150124Z 05005KT 26/13 A3028 RMK A01 T02630132  RH  046%=      5-min Rain = 0
KGU1 150125Z 05004KT 26/13 A3028 RMK A01 T02630132  RH  046%=      5-min Rain = 0
KGU1 150126Z 05004KT 26/13 A3028 RMK A01 T02630132  RH  046%=      5-min Rain = 0
KGU1 150127Z 05004KT 26/13 A3028 RMK A01 T02620132  RH  046%=      5-min Rain = 0
KGU1 150128Z 06003KT 26/13 A3028 RMK A01 T02620132  RH  047%=      5-min Rain = 0
KGU1 150129Z 05002KT 26/13 A3028 RMK A01 T02610132  RH  047%=      5-min Rain = 0
KGU1 150130Z 03002KT 26/13 A3028 RMK A01 T02610133  RH  047%=      5-min Rain = 0
KGU1 150131Z 03003KT 26/13 A3028 RMK A01 T02600133  RH  047%=      5-min Rain = 0
KGU1 150132Z 02004KT 26/13 A3028 RMK A01 T02590132  RH  047%=      5-min Rain = 0
KGU1 150133Z 02003KT 26/13 A3028 RMK A01 T02580132  RH  048%=      5-min Rain = 0
KGU1 150134Z 03003KT 26/13 A3028 RMK A01 T02570132  RH  048%=      5-min Rain = 0
KGU1 150135Z 03003KT 26/13 A3028 RMK A01 T02570132  RH  048%=      5-min Rain = 0
KGU1 150136Z 02003KT 26/13 A3028 RMK A01 T02560132  RH  048%=      5-min Rain = 0
KGU1 150137Z 02003KT 26/13 A3028 RMK A01 T02560132  RH  048%=      5-min Rain = 0
KGU1 150138Z 02003KT 26/13 A3028 RMK A01 T02550132  RH  048%=      5-min Rain = 0
KGU1 150139Z 02003KT 26/13 A3028 RMK A01 T02550132  RH  048%=      5-min Rain = 0
KGU1 150140Z 02003KT 26/13 A3028 RMK A01 T02550132  RH  049%=      5-min Rain = 0
KGU1 150141Z 01004KT 25/13 A3028 RMK A01 T02540132  RH  049%=      5-min Rain = 0
KGU1 150142Z 01004KT 25/13 A3028 RMK A01 T02540132  RH  049%=      5-min Rain = 0
KGU1 150143Z 01004KT 25/13 A3028 RMK A01 T02530132  RH  049%=      5-min Rain = 0
KGU1 150144Z 01004KT 25/13 A3028 RMK A01 T02530132  RH  049%=      5-min Rain = 0
KGU1 150145Z 01004KT 25/13 A3028 RMK A01 T02530132  RH  049%=      5-min Rain = 0
KGU1 150146Z 02004KT 25/13 A3028 RMK A01 T02530131  RH  049%=      5-min Rain = 0
KGU1 150147Z 00004KT 25/13 A3028 RMK A01 T02530131  RH  049%=      5-min Rain = 0
KGU1 150148Z 01004KT 25/13 A3028 RMK A01 T02530131  RH  049%=      5-min Rain = 0
KGU1 150149Z 01005KT 25/13 A3029 RMK A01 T02530131  RH  049%=      5-min Rain = 0
KGU1 150150Z 01005KT 25/13 A3029 RMK A01 T02530132  RH  049%=      5-min Rain = 0
KGU1 150151Z 01005KT 25/13 A3029 RMK A01 T02530132  RH  049%=      5-min Rain = 0
KGU1 150152Z 02005KT 25/13 A3029 RMK A01 T02520132  RH  049%=      5-min Rain = 0
KGU1 150153Z 02004KT 25/13 A3029 RMK A01 T02520132  RH  049%=      5-min Rain = 0
KGU1 150154Z 02004KT 25/13 A3029 RMK A01 T02530132  RH  049%=      5-min Rain = 0
KGU1 150155Z 01004KT 25/13 A3029 RMK A01 T02530132  RH  049%=      5-min Rain = 0
KGU1 150156Z 01003KT 25/13 A3029 RMK A01 T02520132  RH  049%=      5-min Rain = 0
KGU1 150157Z 01003KT 25/13 A3029 RMK A01 T02520132  RH  049%=      5-min Rain = 0
KGU1 150158Z 02003KT 25/13 A3029 RMK A01 T02520133  RH  050%=      5-min Rain = 0
KGU1 150159Z 02003KT 25/13 A3029 RMK A01 T02520133  RH  050%=      5-min Rain = 0
KGU1 150200Z 02003KT 25/13 A3029 RMK A01 T02520133  RH  050%=      5-min Rain = 0
KGU1 150201Z 02003KT 25/13 A3029 RMK A01 T02510133  RH  050%=      5-min Rain = 0
KGU1 150202Z 03004KT 25/13 A3029 RMK A01 T02510134  RH  050%=      5-min Rain = 0
KGU1 150203Z 04004KT 25/13 A303 RMK A01 T02510134  RH  050%=      5-min Rain = 0
KGU1 150204Z 04007KT 25/13 A303 RMK A01 T02500134  RH  050%=      5-min Rain = 0
KGU1 150205Z 04013KT 25/14 A303 RMK A01 T02500136  RH  051%=      5-min Rain = 0
KGU1 150206Z 06012KT 25/14 A303 RMK A01 T02530139  RH  051%=      5-min Rain = 0
KGU1 150207Z 09014KT 25/14 A303 RMK A01 T02530141  RH  052%=      5-min Rain = 0
KGU1 150208Z 11013G18KT 25/15 A3031 RMK A01 T02510146  RH  054%=      5-min Rain = 0
KGU1 150209Z 12013KT 25/15 A3031 RMK A01 T02500149  RH  056%=      5-min Rain = 0
KGU1 150210Z 12013G18KT 25/15 A3031 RMK A01 T02490151  RH  057%=      5-min Rain = 0
KGU1 150211Z 12013KT 25/15 A3031 RMK A01 T02480151  RH  057%=      5-min Rain = 0
KGU1 150212Z 12015KT 25/15 A3031 RMK A01 T02470152  RH  058%=      5-min Rain = 0
KGU1 150213Z 12011KT 25/15 A3031 RMK A01 T02470153  RH  058%=      5-min Rain = 0
KGU1 150214Z 12011KT 25/15 A3031 RMK A01 T02460153  RH  059%=      5-min Rain = 0
KGU1 150215Z 12010KT 25/15 A3031 RMK A01 T02460153  RH  059%=      5-min Rain = 0
KGU1 150216Z 12009G14KT 25/15 A3031 RMK A01 T02450153  RH  059%=      5-min Rain = 0
KGU1 150217Z 13009G14KT 25/15 A3031 RMK A01 T02450153  RH  059%=      5-min Rain = 0
KGU1 150218Z 12007KT 25/15 A3031 RMK A01 T02450153  RH  059%=      5-min Rain = 0
KGU1 150219Z 12006KT 24/15 A3032 RMK A01 T02440152  RH  059%=      5-min Rain = 0
KGU1 150220Z 12008G13KT 24/15 A3032 RMK A01 T02440152  RH  059%=      5-min Rain = 0
KGU1 150221Z 11011G17KT 24/15 A3032 RMK A01 T02440152  RH  059%=      5-min Rain = 0
KGU1 150222Z 13014KT 24/15 A3032 RMK A01 T02430149  RH  058%=      5-min Rain = 0
KGU1 150223Z 12011KT 24/15 A3032 RMK A01 T02430149  RH  058%=      5-min Rain = 0
KGU1 150224Z 11009KT 24/15 A3032 RMK A01 T02420148  RH  058%=      5-min Rain = 0
KGU1 150225Z 12009KT 24/15 A3032 RMK A01 T02420148  RH  058%=      5-min Rain = 0
KGU1 150226Z 13009G16KT 24/15 A3032 RMK A01 T02410148  RH  059%=      5-min Rain = 0
KGU1 150227Z 14009KT 24/15 A3032 RMK A01 T02410150  RH  060%=      5-min Rain = 0
KGU1 150228Z 13011KT 24/15 A3032 RMK A01 T02390152  RH  061%=      5-min Rain = 0
KGU1 150229Z 13008KT 24/15 A3032 RMK A01 T02390152  RH  061%=      5-min Rain = 0
KGU1 150230Z 11006KT 24/15 A3032 RMK A01 T02380152  RH  061%=      5-min Rain = 0
KGU1 150231Z 10006KT 24/15 A3032 RMK A01 T02380151  RH  061%=      5-min Rain = 0
KGU1 150232Z 12007KT 24/15 A3032 RMK A01 T02380151  RH  061%=      5-min Rain = 0
KGU1 150233Z 08005KT 24/15 A3033 RMK A01 T02370151  RH  061%=      5-min Rain = 0
KGU1 150234Z 11005KT 24/15 A3033 RMK A01 T02370150  RH  061%=      5-min Rain = 0
KGU1 150235Z 10004KT 24/15 A3033 RMK A01 T02370151  RH  061%=      5-min Rain = 0
KGU1 150236Z 10004KT 24/15 A3033 RMK A01 T02370150  RH  061%=      5-min Rain = 0
KGU1 150237Z 07004KT 24/15 A3033 RMK A01 T02360150  RH  061%=      5-min Rain = 0
KGU1 150238Z 05003KT 24/15 A3033 RMK A01 T02360150  RH  061%=      5-min Rain = 0
KGU1 150239Z 01004KT 24/15 A3033 RMK A01 T02360150  RH  061%=      5-min Rain = 0
KGU1 150240Z 36004KT 24/15 A3033 RMK A01 T02360150  RH  061%=      5-min Rain = 0
KGU1 150241Z 36003KT 24/15 A3033 RMK A01 T02360149  RH  061%=      5-min Rain = 0
KGU1 150242Z 01004KT 24/15 A3033 RMK A01 T02360149  RH  061%=      5-min Rain = 0
KGU1 150243Z 35004KT 24/15 A3033 RMK A01 T02360149  RH  061%=      5-min Rain = 0
KGU1 150244Z 35004KT 24/15 A3033 RMK A01 T02360149  RH  061%=      5-min Rain = 0
KGU1 150245Z 34005KT 24/15 A3033 RMK A01 T02360149  RH  061%=      5-min Rain = 0
KGU1 150246Z 01004KT 24/15 A3033 RMK A01 T02360149  RH  061%=      5-min Rain = 0
KGU1 150247Z 03005KT 24/15 A3033 RMK A01 T02350149  RH  061%=      5-min Rain = 0
KGU1 150248Z 03005KT 24/15 A3033 RMK A01 T02350149  RH  061%=      5-min Rain = 0
KGU1 150249Z 02004KT 24/15 A3034 RMK A01 T02350149  RH  061%=      5-min Rain = 0
KGU1 150250Z 02004KT 24/15 A3034 RMK A01 T02350149  RH  061%=      5-min Rain = 0
KGU1 150251Z 36006KT 24/15 A3034 RMK A01 T02350149  RH  061%=      5-min Rain = 0
KGU1 150252Z 35006KT 24/15 A3034 RMK A01 T02350148  RH  061%=      5-min Rain = 0
KGU1 150253Z 35008KT 24/15 A3034 RMK A01 T02350148  RH  061%=      5-min Rain = 0
KGU1 150254Z 36006KT 24/15 A3034 RMK A01 T02360148  RH  061%=      5-min Rain = 0
KGU1 150255Z 36005KT 24/15 A3034 RMK A01 T02360148  RH  060%=      5-min Rain = 0
KGU1 150256Z 01006KT 24/15 A3034 RMK A01 T02360148  RH  061%=      5-min Rain = 0
KGU1 150257Z 02007KT 24/15 A3034 RMK A01 T02360149  RH  061%=      5-min Rain = 0
KGU1 150258Z 01007KT 24/15 A3035 RMK A01 T02360149  RH  061%=      5-min Rain = 0
KGU1 150259Z 02007KT 24/15 A3035 RMK A01 T02360150  RH  061%=      5-min Rain = 0
KGU1 150300Z 02008KT 24/15 A3035 RMK A01 T02360150  RH  061%=      5-min Rain = 0
KGU1 150301Z 02010KT 24/15 A3035 RMK A01 T02360150  RH  061%=      5-min Rain = 0
KGU1 150302Z 01009G14KT 24/15 A3035 RMK A01 T02360150  RH  061%=      5-min Rain = 0
KGU1 150303Z 01015KT 24/16 A3035 RMK A01 T02360155  RH  063%=      5-min Rain = 0
KGU1 150304Z 03004G11KT 23/12 A3035 RMK A01 T02340118  RH  051%=      5-min Rain = 0
KGU1 150305Z 04003KT 24/11 A3034 RMK A01 T02380106  RH  045%=      5-min Rain = 0
KGU1 150306Z 03005KT 24/12 A3033 RMK A01 T02380120  RH  049%=      5-min Rain = 0
KGU1 150307Z 35005KT 24/13 A3033 RMK A01 T02370125  RH  051%=      5-min Rain = 0
KGU1 150308Z 33007KT 23/15 A3033 RMK A01 T02340149  RH  062%=      5-min Rain = 0
KGU1 150309Z 31006KT 23/16 A3033 RMK A01 T02300155  RH  065%=      5-min Rain = 0
KGU1 150310Z 32005KT 23/16 A3033 RMK A01 T02290156  RH  066%=      5-min Rain = 0
KGU1 150311Z 32005KT 23/16 A3033 RMK A01 T02270158  RH  068%=      5-min Rain = 0
KGU1 150312Z 34003KT 22/16 A3033 RMK A01 T02240158  RH  069%=      5-min Rain = 0
KGU1 150313Z 01004KT 22/15 A3033 RMK A01 T02220150  RH  067%=      5-min Rain = 0
KGU1 150314Z 01003KT 22/13 A3033 RMK A01 T02230127  RH  057%=      5-min Rain = 0
KGU1 150315Z 34006KT 22/13 A3033 RMK A01 T02240134  RH  059%=      5-min Rain = 0
KGU1 150316Z 34007KT 22/12 A3033 RMK A01 T02220119  RH  054%=      5-min Rain = 0
KGU1 150317Z 33007KT 22/12 A3033 RMK A01 T02210124  RH  056%=      5-min Rain = 0
KGU1 150318Z 33007KT 22/13 A3033 RMK A01 T02170126  RH  058%=      5-min Rain = 0
KGU1 150319Z 35006KT 22/12 A3033 RMK A01 T02160122  RH  057%=      5-min Rain = 0
KGU1 150320Z 00005KT 22/12 A3034 RMK A01 T02150121  RH  057%=      5-min Rain = 0
KGU1 150321Z 35002KT 22/12 A3034 RMK A01 T02150120  RH  057%=      5-min Rain = 0
KGU1 150322Z 35000KT 22/12 A3034 RMK A01 T02150117  RH  056%=      5-min Rain = 0
KGU1 150323Z 10001KT 22/11 A3034 RMK A01 T02150113  RH  054%=      5-min Rain = 0
KGU1 150324Z 10003KT 22/11 A3034 RMK A01 T02160110  RH  053%=      5-min Rain = 0
KGU1 150325Z 04001KT 22/10 A3034 RMK A01 T02190097  RH  047%=      5-min Rain = 0
KGU1 150326Z 17001KT 22/10 A3034 RMK A01 T02220101  RH  048%=      5-min Rain = 0
KGU1 150327Z 13002KT 23/11 A3034 RMK A01 T02250111  RH  050%=      5-min Rain = 0
KGU1 150328Z 20003KT 23/12 A3034 RMK A01 T02280117  RH  051%=      5-min Rain = 0
KGU1 150329Z 30001KT 23/12 A3034 RMK A01 T02300116  RH  050%=      5-min Rain = 0
KGU1 150330Z 32004KT 23/11 A3034 RMK A01 T02300105  RH  046%=      5-min Rain = 0
KGU1 150331Z 35003KT 23/12 A3034 RMK A01 T02330123  RH  052%=      5-min Rain = 0
KGU1 150332Z 33003KT 24/11 A3034 RMK A01 T02350111  RH  047%=      5-min Rain = 0
KGU1 150333Z 31003KT 24/13 A3034 RMK A01 T02360125  RH  052%=      5-min Rain = 0
KGU1 150334Z 33001KT 24/13 A3034 RMK A01 T02360130  RH  054%=      5-min Rain = 0
KGU1 150335Z 31000KT 24/13 A3034 RMK A01 T02350131  RH  054%=      5-min Rain = 0
KGU1 150336Z 30001KT 24/13 A3034 RMK A01 T02350133  RH  055%=      5-min Rain = 0
KGU1 150337Z 30001KT 23/13 A3034 RMK A01 T02340131  RH  055%=      5-min Rain = 0
KGU1 150338Z 31001KT 23/13 A3035 RMK A01 T02330126  RH  053%=      5-min Rain = 0
KGU1 150339Z 36002KT 23/12 A3035 RMK A01 T02330119  RH  051%=      5-min Rain = 0
KGU1 150340Z 01005KT 23/12 A3035 RMK A01 T02310124  RH  053%=      5-min Rain = 0
KGU1 150341Z 01005KT 23/12 A3035 RMK A01 T02280121  RH  053%=      5-min Rain = 0
KGU1 150342Z 02005KT 23/12 A3035 RMK A01 T02260119  RH  053%=      5-min Rain = 0
KGU1 150343Z 05006KT 23/13 A3035 RMK A01 T02250128  RH  057%=      5-min Rain = 0
KGU1 150344Z 10004KT 23/13 A3035 RMK A01 T02270132  RH  057%=      5-min Rain = 0
KGU1 150345Z 13003KT 23/13 A3035 RMK A01 T02280134  RH  058%=      5-min Rain = 0
KGU1 150346Z 15002KT 23/13 A3034 RMK A01 T02280133  RH  057%=      5-min Rain = 0
KGU1 150347Z 01001KT 23/14 A3034 RMK A01 T02280135  RH  058%=      5-min Rain = 0
KGU1 150348Z 35004KT 23/14 A3034 RMK A01 T02280135  RH  058%=      5-min Rain = 0
KGU1 150349Z 34005KT 23/13 A3034 RMK A01 T02260134  RH  058%=      5-min Rain = 0
KGU1 150350Z 34006KT 22/13 A3034 RMK A01 T02240134  RH  059%=      5-min Rain = 0
KGU1 150351Z 34005KT 22/14 A3034 RMK A01 T02220135  RH  060%=      5-min Rain = 0
KGU1 150352Z 34004KT 22/14 A3034 RMK A01 T02220137  RH  061%=      5-min Rain = 0
KGU1 150353Z 34004KT 22/14 A3034 RMK A01 T02220140  RH  062%=      5-min Rain = 0
KGU1 150354Z 33003KT 22/14 A3034 RMK A01 T02220141  RH  063%=      5-min Rain = 0
KGU1 150355Z 32003KT 22/14 A3034 RMK A01 T02220142  RH  063%=      5-min Rain = 0
KGU1 150356Z 31006KT 22/14 A3034 RMK A01 T02210142  RH  064%=      5-min Rain = 0
KGU1 150357Z 32007KT 22/14 A3033 RMK A01 T02210140  RH  063%=      5-min Rain = 0
KGU1 150358Z 32007KT 22/14 A3033 RMK A01 T02200140  RH  063%=      5-min Rain = 0
KGU1 150359Z 31007KT 22/14 A3033 RMK A01 T02190139  RH  063%=      5-min Rain = 0
KGU1 150400Z 31008KT 22/14 A3033 RMK A01 T02190141  RH  064%=      5-min Rain = 0
KGU1 150401Z 30007KT 22/14 A3033 RMK A01 T02180140  RH  064%=      5-min Rain = 0
KGU1 150402Z 30008KT 22/14 A3033 RMK A01 T02190142  RH  064%=      5-min Rain = 0
KGU1 150403Z 30007KT 22/14 A3033 RMK A01 T02190140  RH  064%=      5-min Rain = 0
KGU1 150404Z 28008KT 22/14 A3033 RMK A01 T02190141  RH  064%=      5-min Rain = 0
KGU1 150405Z 28010KT 22/14 A3033 RMK A01 T02180141  RH  064%=      5-min Rain = 0
KGU1 150406Z 27010KT 22/14 A3032 RMK A01 T02190137  RH  062%=      5-min Rain = 0
KGU1 150407Z 28009KT 22/14 A3032 RMK A01 T02220136  RH  061%=      5-min Rain = 0
KGU1 150408Z 28008KT 22/14 A3032 RMK A01 T02230137  RH  060%=      5-min Rain = 0
KGU1 150409Z 28007KT 22/14 A3032 RMK A01 T02220138  RH  061%=      5-min Rain = 0
KGU1 150410Z 30007KT 22/14 A3032 RMK A01 T02210139  RH  062%=      5-min Rain = 0
KGU1 150411Z 29006KT 22/14 A3032 RMK A01 T02200136  RH  062%=      5-min Rain = 0
KGU1 150412Z 31007KT 22/13 A3032 RMK A01 T02210132  RH  059%=      5-min Rain = 0
KGU1 150413Z 30005KT 23/13 A3032 RMK A01 T02250129  RH  057%=      5-min Rain = 0
KGU1 150414Z 32006KT 23/13 A3032 RMK A01 T02270132  RH  057%=      5-min Rain = 0
KGU1 150415Z 32007KT 23/13 A3032 RMK A01 T02270127  RH  055%=      5-min Rain = 0
KGU1 150416Z 32008KT 23/13 A3032 RMK A01 T02300125  RH  054%=      5-min Rain = 0
KGU1 150417Z 30009KT 23/13 A3032 RMK A01 T02320127  RH  053%=      5-min Rain = 0
KGU1 150418Z 30012KT 23/13 A3032 RMK A01 T02320129  RH  054%=      5-min Rain = 0
KGU1 150419Z 30012KT 23/13 A3032 RMK A01 T02320131  RH  055%=      5-min Rain = 0
KGU1 150420Z 30012KT 23/13 A3032 RMK A01 T02290133  RH  057%=      5-min Rain = 0
KGU1 150421Z 28010KT 23/13 A3032 RMK A01 T02280131  RH  057%=      5-min Rain = 0
KGU1 150422Z 29012KT 23/13 A3032 RMK A01 T02270131  RH  057%=      5-min Rain = 0
KGU1 150423Z 29014KT 23/13 A3032 RMK A01 T02270131  RH  057%=      5-min Rain = 0
KGU1 150424Z 29016KT 23/13 A3032 RMK A01 T02270131  RH  057%=      5-min Rain = 0
KGU1 150425Z 29011KT 23/13 A3032 RMK A01 T02270131  RH  057%=      5-min Rain = 0
KGU1 150426Z 30010KT 23/13 A3032 RMK A01 T02260131  RH  057%=      5-min Rain = 0
KGU1 150427Z 31011KT 23/13 A3032 RMK A01 T02260131  RH  057%=      5-min Rain = 0
KGU1 150428Z 31011KT 23/13 A3032 RMK A01 T02250131  RH  057%=      5-min Rain = 0
KGU1 150429Z 30011KT 23/13 A3032 RMK A01 T02250131  RH  057%=      5-min Rain = 0
KGU1 150430Z 30014KT 23/13 A3032 RMK A01 T02250130  RH  057%=      5-min Rain = 0
KGU1 150431Z 30011KT 23/13 A3032 RMK A01 T02260128  RH  056%=      5-min Rain = 0
KGU1 150432Z 31011KT 23/13 A3032 RMK A01 T02260127  RH  056%=      5-min Rain = 0
KGU1 150433Z 31011KT 23/13 A3032 RMK A01 T02270125  RH  055%=      5-min Rain = 0
KGU1 150434Z 30011KT 23/12 A3032 RMK A01 T02290123  RH  053%=      5-min Rain = 0
KGU1 150435Z 31012KT 23/12 A3032 RMK A01 T02310122  RH  052%=      5-min Rain = 0
KGU1 150436Z 30014KT 23/12 A3032 RMK A01 T02320121  RH  052%=      5-min Rain = 0
KGU1 150437Z 30012KT 23/12 A3032 RMK A01 T02320122  RH  052%=      5-min Rain = 0
KGU1 150438Z 30012KT 23/12 A3032 RMK A01 T02310122  RH  052%=      5-min Rain = 0
KGU1 150439Z 30012KT 23/12 A3032 RMK A01 T02310122  RH  052%=      5-min Rain = 0
KGU1 150440Z 30014KT 23/12 A3032 RMK A01 T02310119  RH  051%=      5-min Rain = 0
KGU1 150441Z 31011KT 23/12 A3032 RMK A01 T02340117  RH  049%=      5-min Rain = 0
KGU1 150442Z 30011KT 24/12 A3032 RMK A01 T02350118  RH  050%=      5-min Rain = 0
KGU1 150443Z 30012KT 23/12 A3032 RMK A01 T02330120  RH  051%=      5-min Rain = 0
KGU1 150444Z 30011KT 23/12 A3032 RMK A01 T02320120  RH  051%=      5-min Rain = 0
KGU1 150445Z 30012KT 23/12 A3032 RMK A01 T02320118  RH  051%=      5-min Rain = 0
KGU1 150446Z 30011KT 23/12 A3032 RMK A01 T02320117  RH  050%=      5-min Rain = 0
KGU1 150447Z 29010KT 24/11 A3032 RMK A01 T02350113  RH  048%=      5-min Rain = 0
KGU1 150448Z 30010KT 24/11 A3032 RMK A01 T02370111  RH  047%=      5-min Rain = 0
KGU1 150449Z 30010KT 24/11 A3032 RMK A01 T02380113  RH  047%=      5-min Rain = 0
KGU1 150450Z 30010KT 24/11 A3032 RMK A01 T02370113  RH  047%=      5-min Rain = 0
KGU1 150451Z 30008KT 24/11 A3032 RMK A01 T02370111  RH  047%=      5-min Rain = 0
KGU1 150452Z 30008KT 24/11 A3032 RMK A01 T02360114  RH  048%=      5-min Rain = 0
KGU1 150453Z 30009KT 23/12 A3032 RMK A01 T02340115  RH  049%=      5-min Rain = 0
KGU1 150454Z 30008KT 23/11 A3032 RMK A01 T02340114  RH  048%=      5-min Rain = 0
KGU1 150455Z 30011KT 23/12 A3032 RMK A01 T02340115  RH  049%=      5-min Rain = 0
KGU1 150456Z 30011KT 23/11 A3032 RMK A01 T02340114  RH  049%=      5-min Rain = 0
KGU1 150457Z 30014KT 23/11 A3032 RMK A01 T02340113  RH  048%=      5-min Rain = 0
KGU1 150458Z 29011KT 24/11 A3032 RMK A01 T02350113  RH  048%=      5-min Rain = 0
KGU1 150459Z 30014KT 23/12 A3032 RMK A01 T02340116  RH  049%=      5-min Rain = 0

Page generated in 0.125 seconds.